<?xml version="1.0" encoding="UTF-8" standalone="no" ?>
<gpx xmlns="http://www.topografix.com/GPX/1/1" xmlns:xsi="http://www.w3.org/2001/XMLSchema-instance" xsi:schemaLocation="http://www.topografix.com/GPX/1/1 http://www.topografix.com/GPX/1/1/gpx.xsd" version="1.1" creator="VisuGPX - https://www.visugpx.com">
  <metadata>
    <name>maison versailles chantiers</name>
    <desc><![CDATA[randonnée maison versailles chantiers 06 janvier 2012]]></desc>
  </metadata>
  <trk>
    <name><![CDATA[MAISON VERSAILLES CHANTIERS]]></name>
    <trkseg>
      <trkpt lat="48.82444" lon="1.97642">
        <ele>117.42</ele>
        <time>2012-01-06T13:04:13Z</time>
      </trkpt>
      <trkpt lat="48.8245" lon="1.97642">
        <ele>118.86</ele>
        <time>2012-01-06T13:04:26Z</time>
      </trkpt>
      <trkpt lat="48.82456" lon="1.97642">
        <ele>116.46</ele>
        <time>2012-01-06T13:04:38Z</time>
      </trkpt>
      <trkpt lat="48.82457" lon="1.97641">
        <ele>113.57</ele>
        <time>2012-01-06T13:04:52Z</time>
      </trkpt>
      <trkpt lat="48.82457" lon="1.97644">
        <ele>113.57</ele>
        <time>2012-01-06T13:04:54Z</time>
      </trkpt>
      <trkpt lat="48.82457" lon="1.97653">
        <ele>113.57</ele>
        <time>2012-01-06T13:04:59Z</time>
      </trkpt>
      <trkpt lat="48.82453" lon="1.97675">
        <ele>114.05</ele>
        <time>2012-01-06T13:05:11Z</time>
      </trkpt>
      <trkpt lat="48.8245" lon="1.97709">
        <ele>114.05</ele>
        <time>2012-01-06T13:05:27Z</time>
      </trkpt>
      <trkpt lat="48.82448" lon="1.97736">
        <ele>114.53</ele>
        <time>2012-01-06T13:05:40Z</time>
      </trkpt>
      <trkpt lat="48.82445" lon="1.97764">
        <ele>115.5</ele>
        <time>2012-01-06T13:05:54Z</time>
      </trkpt>
      <trkpt lat="48.82442" lon="1.97793">
        <ele>114.53</ele>
        <time>2012-01-06T13:06:09Z</time>
      </trkpt>
      <trkpt lat="48.82438" lon="1.97818">
        <ele>115.5</ele>
        <time>2012-01-06T13:06:22Z</time>
      </trkpt>
      <trkpt lat="48.82437" lon="1.9785">
        <ele>115.5</ele>
        <time>2012-01-06T13:06:37Z</time>
      </trkpt>
      <trkpt lat="48.82433" lon="1.9788">
        <ele>115.01</ele>
        <time>2012-01-06T13:06:52Z</time>
      </trkpt>
      <trkpt lat="48.8243" lon="1.9791">
        <ele>115.5</ele>
        <time>2012-01-06T13:07:06Z</time>
      </trkpt>
      <trkpt lat="48.82426" lon="1.97943">
        <ele>119.34</ele>
        <time>2012-01-06T13:07:20Z</time>
      </trkpt>
      <trkpt lat="48.82423" lon="1.97975">
        <ele>120.78</ele>
        <time>2012-01-06T13:07:35Z</time>
      </trkpt>
      <trkpt lat="48.82418" lon="1.98005">
        <ele>122.71</ele>
        <time>2012-01-06T13:07:49Z</time>
      </trkpt>
      <trkpt lat="48.82413" lon="1.98042">
        <ele>125.59</ele>
        <time>2012-01-06T13:08:05Z</time>
      </trkpt>
      <trkpt lat="48.82409" lon="1.98073">
        <ele>125.59</ele>
        <time>2012-01-06T13:08:19Z</time>
      </trkpt>
      <trkpt lat="48.82408" lon="1.9809">
        <ele>125.59</ele>
        <time>2012-01-06T13:08:27Z</time>
      </trkpt>
      <trkpt lat="48.82423" lon="1.98108">
        <ele>125.59</ele>
        <time>2012-01-06T13:08:41Z</time>
      </trkpt>
      <trkpt lat="48.82436" lon="1.98117">
        <ele>127.03</ele>
        <time>2012-01-06T13:08:54Z</time>
      </trkpt>
      <trkpt lat="48.82425" lon="1.9815">
        <ele>126.55</ele>
        <time>2012-01-06T13:09:11Z</time>
      </trkpt>
      <trkpt lat="48.82424" lon="1.98158">
        <ele>126.55</ele>
        <time>2012-01-06T13:09:15Z</time>
      </trkpt>
      <trkpt lat="48.8242" lon="1.98172">
        <ele>126.07</ele>
        <time>2012-01-06T13:09:23Z</time>
      </trkpt>
      <trkpt lat="48.82419" lon="1.9818">
        <ele>126.07</ele>
        <time>2012-01-06T13:09:27Z</time>
      </trkpt>
      <trkpt lat="48.8241" lon="1.98204">
        <ele>126.55</ele>
        <time>2012-01-06T13:09:38Z</time>
      </trkpt>
      <trkpt lat="48.82399" lon="1.98233">
        <ele>127.99</ele>
        <time>2012-01-06T13:09:53Z</time>
      </trkpt>
      <trkpt lat="48.8239" lon="1.98257">
        <ele>127.51</ele>
        <time>2012-01-06T13:10:05Z</time>
      </trkpt>
      <trkpt lat="48.82377" lon="1.98286">
        <ele>127.03</ele>
        <time>2012-01-06T13:10:21Z</time>
      </trkpt>
      <trkpt lat="48.82365" lon="1.98313">
        <ele>127.51</ele>
        <time>2012-01-06T13:10:35Z</time>
      </trkpt>
      <trkpt lat="48.82356" lon="1.98339">
        <ele>126.55</ele>
        <time>2012-01-06T13:10:49Z</time>
      </trkpt>
      <trkpt lat="48.82344" lon="1.98372">
        <ele>125.11</ele>
        <time>2012-01-06T13:11:05Z</time>
      </trkpt>
      <trkpt lat="48.82342" lon="1.98385">
        <ele>124.63</ele>
        <time>2012-01-06T13:11:11Z</time>
      </trkpt>
      <trkpt lat="48.82331" lon="1.98411">
        <ele>125.59</ele>
        <time>2012-01-06T13:11:25Z</time>
      </trkpt>
      <trkpt lat="48.82329" lon="1.98415">
        <ele>125.59</ele>
        <time>2012-01-06T13:11:27Z</time>
      </trkpt>
      <trkpt lat="48.82319" lon="1.98444">
        <ele>123.67</ele>
        <time>2012-01-06T13:11:42Z</time>
      </trkpt>
      <trkpt lat="48.82315" lon="1.98456">
        <ele>123.67</ele>
        <time>2012-01-06T13:11:48Z</time>
      </trkpt>
      <trkpt lat="48.82304" lon="1.98486">
        <ele>123.19</ele>
        <time>2012-01-06T13:12:04Z</time>
      </trkpt>
      <trkpt lat="48.82296" lon="1.98516">
        <ele>123.19</ele>
        <time>2012-01-06T13:12:19Z</time>
      </trkpt>
      <trkpt lat="48.82287" lon="1.98549">
        <ele>122.71</ele>
        <time>2012-01-06T13:12:34Z</time>
      </trkpt>
      <trkpt lat="48.82283" lon="1.98574">
        <ele>122.22</ele>
        <time>2012-01-06T13:12:46Z</time>
      </trkpt>
      <trkpt lat="48.82277" lon="1.986">
        <ele>122.22</ele>
        <time>2012-01-06T13:13:00Z</time>
      </trkpt>
      <trkpt lat="48.82271" lon="1.9862">
        <ele>121.74</ele>
        <time>2012-01-06T13:13:09Z</time>
      </trkpt>
      <trkpt lat="48.82263" lon="1.98654">
        <ele>120.3</ele>
        <time>2012-01-06T13:13:24Z</time>
      </trkpt>
      <trkpt lat="48.82256" lon="1.98683">
        <ele>119.34</ele>
        <time>2012-01-06T13:13:39Z</time>
      </trkpt>
      <trkpt lat="48.8225" lon="1.98717">
        <ele>119.82</ele>
        <time>2012-01-06T13:13:54Z</time>
      </trkpt>
      <trkpt lat="48.82242" lon="1.98746">
        <ele>117.42</ele>
        <time>2012-01-06T13:14:08Z</time>
      </trkpt>
      <trkpt lat="48.82234" lon="1.98778">
        <ele>117.42</ele>
        <time>2012-01-06T13:14:23Z</time>
      </trkpt>
      <trkpt lat="48.82227" lon="1.98811">
        <ele>118.38</ele>
        <time>2012-01-06T13:14:38Z</time>
      </trkpt>
      <trkpt lat="48.82218" lon="1.98841">
        <ele>118.38</ele>
        <time>2012-01-06T13:14:53Z</time>
      </trkpt>
      <trkpt lat="48.82217" lon="1.98867">
        <ele>114.53</ele>
        <time>2012-01-06T13:15:05Z</time>
      </trkpt>
      <trkpt lat="48.82222" lon="1.98881">
        <ele>113.57</ele>
        <time>2012-01-06T13:15:15Z</time>
      </trkpt>
      <trkpt lat="48.82224" lon="1.98889">
        <ele>113.09</ele>
        <time>2012-01-06T13:15:27Z</time>
      </trkpt>
      <trkpt lat="48.82221" lon="1.98897">
        <ele>113.57</ele>
        <time>2012-01-06T13:15:34Z</time>
      </trkpt>
      <trkpt lat="48.82216" lon="1.98901">
        <ele>113.57</ele>
        <time>2012-01-06T13:15:39Z</time>
      </trkpt>
      <trkpt lat="48.82216" lon="1.98907">
        <ele>114.05</ele>
        <time>2012-01-06T13:15:45Z</time>
      </trkpt>
      <trkpt lat="48.82201" lon="1.98923">
        <ele>114.05</ele>
        <time>2012-01-06T13:15:59Z</time>
      </trkpt>
      <trkpt lat="48.82199" lon="1.98928">
        <ele>113.57</ele>
        <time>2012-01-06T13:16:02Z</time>
      </trkpt>
      <trkpt lat="48.82198" lon="1.98936">
        <ele>113.57</ele>
        <time>2012-01-06T13:16:06Z</time>
      </trkpt>
      <trkpt lat="48.82195" lon="1.98962">
        <ele>113.57</ele>
        <time>2012-01-06T13:16:19Z</time>
      </trkpt>
      <trkpt lat="48.82191" lon="1.98989">
        <ele>114.53</ele>
        <time>2012-01-06T13:16:33Z</time>
      </trkpt>
      <trkpt lat="48.82189" lon="1.99005">
        <ele>113.57</ele>
        <time>2012-01-06T13:16:42Z</time>
      </trkpt>
      <trkpt lat="48.82185" lon="1.99016">
        <ele>114.53</ele>
        <time>2012-01-06T13:16:48Z</time>
      </trkpt>
      <trkpt lat="48.82185" lon="1.99022">
        <ele>114.05</ele>
        <time>2012-01-06T13:16:51Z</time>
      </trkpt>
      <trkpt lat="48.82182" lon="1.99049">
        <ele>114.53</ele>
        <time>2012-01-06T13:17:05Z</time>
      </trkpt>
      <trkpt lat="48.82181" lon="1.99055">
        <ele>113.57</ele>
        <time>2012-01-06T13:17:08Z</time>
      </trkpt>
      <trkpt lat="48.82176" lon="1.99088">
        <ele>111.65</ele>
        <time>2012-01-06T13:17:24Z</time>
      </trkpt>
      <trkpt lat="48.82173" lon="1.99115">
        <ele>110.21</ele>
        <time>2012-01-06T13:17:37Z</time>
      </trkpt>
      <trkpt lat="48.82172" lon="1.99122">
        <ele>109.73</ele>
        <time>2012-01-06T13:17:41Z</time>
      </trkpt>
      <trkpt lat="48.82167" lon="1.9915">
        <ele>110.21</ele>
        <time>2012-01-06T13:17:55Z</time>
      </trkpt>
      <trkpt lat="48.82162" lon="1.99183">
        <ele>110.21</ele>
        <time>2012-01-06T13:18:09Z</time>
      </trkpt>
      <trkpt lat="48.82159" lon="1.99217">
        <ele>108.77</ele>
        <time>2012-01-06T13:18:24Z</time>
      </trkpt>
      <trkpt lat="48.82153" lon="1.99267">
        <ele>102.04</ele>
        <time>2012-01-06T13:18:39Z</time>
      </trkpt>
      <trkpt lat="48.82152" lon="1.99269">
        <ele>102.04</ele>
        <time>2012-01-06T13:18:40Z</time>
      </trkpt>
      <trkpt lat="48.82152" lon="1.99273">
        <ele>101.56</ele>
        <time>2012-01-06T13:18:42Z</time>
      </trkpt>
      <trkpt lat="48.82147" lon="1.99305">
        <ele>102.52</ele>
        <time>2012-01-06T13:18:58Z</time>
      </trkpt>
      <trkpt lat="48.82143" lon="1.99331">
        <ele>103.96</ele>
        <time>2012-01-06T13:19:10Z</time>
      </trkpt>
      <trkpt lat="48.82143" lon="1.99339">
        <ele>103.96</ele>
        <time>2012-01-06T13:19:14Z</time>
      </trkpt>
      <trkpt lat="48.82143" lon="1.99347">
        <ele>103.48</ele>
        <time>2012-01-06T13:19:17Z</time>
      </trkpt>
      <trkpt lat="48.82143" lon="1.99356">
        <ele>102.04</ele>
        <time>2012-01-06T13:19:20Z</time>
      </trkpt>
      <trkpt lat="48.82138" lon="1.99381">
        <ele>102.04</ele>
        <time>2012-01-06T13:19:31Z</time>
      </trkpt>
      <trkpt lat="48.82132" lon="1.99395">
        <ele>102.04</ele>
        <time>2012-01-06T13:19:38Z</time>
      </trkpt>
      <trkpt lat="48.82117" lon="1.9942">
        <ele>104.92</ele>
        <time>2012-01-06T13:19:53Z</time>
      </trkpt>
      <trkpt lat="48.82105" lon="1.9945">
        <ele>103.48</ele>
        <time>2012-01-06T13:20:07Z</time>
      </trkpt>
      <trkpt lat="48.821" lon="1.99464">
        <ele>103.48</ele>
        <time>2012-01-06T13:20:14Z</time>
      </trkpt>
      <trkpt lat="48.82098" lon="1.99475">
        <ele>102.52</ele>
        <time>2012-01-06T13:20:19Z</time>
      </trkpt>
      <trkpt lat="48.82094" lon="1.99513">
        <ele>101.56</ele>
        <time>2012-01-06T13:20:34Z</time>
      </trkpt>
      <trkpt lat="48.82093" lon="1.99541">
        <ele>97.23</ele>
        <time>2012-01-06T13:20:48Z</time>
      </trkpt>
      <trkpt lat="48.82084" lon="1.99561">
        <ele>97.23</ele>
        <time>2012-01-06T13:21:00Z</time>
      </trkpt>
      <trkpt lat="48.8208" lon="1.99582">
        <ele>95.79</ele>
        <time>2012-01-06T13:21:10Z</time>
      </trkpt>
      <trkpt lat="48.82079" lon="1.99616">
        <ele>92.42</ele>
        <time>2012-01-06T13:21:27Z</time>
      </trkpt>
      <trkpt lat="48.82079" lon="1.99624">
        <ele>91.94</ele>
        <time>2012-01-06T13:21:31Z</time>
      </trkpt>
      <trkpt lat="48.82075" lon="1.99663">
        <ele>94.83</ele>
        <time>2012-01-06T13:21:47Z</time>
      </trkpt>
      <trkpt lat="48.8207" lon="1.99692">
        <ele>96.75</ele>
        <time>2012-01-06T13:22:01Z</time>
      </trkpt>
      <trkpt lat="48.82065" lon="1.99717">
        <ele>97.71</ele>
        <time>2012-01-06T13:22:14Z</time>
      </trkpt>
      <trkpt lat="48.82057" lon="1.9975">
        <ele>100.6</ele>
        <time>2012-01-06T13:22:27Z</time>
      </trkpt>
      <trkpt lat="48.82046" lon="1.99788">
        <ele>103</ele>
        <time>2012-01-06T13:22:43Z</time>
      </trkpt>
      <trkpt lat="48.82038" lon="1.99822">
        <ele>103.48</ele>
        <time>2012-01-06T13:22:58Z</time>
      </trkpt>
      <trkpt lat="48.82037" lon="1.99827">
        <ele>103.96</ele>
        <time>2012-01-06T13:23:08Z</time>
      </trkpt>
      <trkpt lat="48.82035" lon="1.99831">
        <ele>103.48</ele>
        <time>2012-01-06T13:23:11Z</time>
      </trkpt>
      <trkpt lat="48.82027" lon="1.99852">
        <ele>104.44</ele>
        <time>2012-01-06T13:23:22Z</time>
      </trkpt>
      <trkpt lat="48.82014" lon="1.99876">
        <ele>107.32</ele>
        <time>2012-01-06T13:23:37Z</time>
      </trkpt>
      <trkpt lat="48.82012" lon="1.9988">
        <ele>107.81</ele>
        <time>2012-01-06T13:23:39Z</time>
      </trkpt>
      <trkpt lat="48.82003" lon="1.99911">
        <ele>110.21</ele>
        <time>2012-01-06T13:23:55Z</time>
      </trkpt>
      <trkpt lat="48.81998" lon="1.99928">
        <ele>109.73</ele>
        <time>2012-01-06T13:24:04Z</time>
      </trkpt>
      <trkpt lat="48.81994" lon="1.99938">
        <ele>109.25</ele>
        <time>2012-01-06T13:24:09Z</time>
      </trkpt>
      <trkpt lat="48.8199" lon="1.99967">
        <ele>109.73</ele>
        <time>2012-01-06T13:24:22Z</time>
      </trkpt>
      <trkpt lat="48.81985" lon="1.99985">
        <ele>109.73</ele>
        <time>2012-01-06T13:24:31Z</time>
      </trkpt>
      <trkpt lat="48.81975" lon="2.00013">
        <ele>109.73</ele>
        <time>2012-01-06T13:24:45Z</time>
      </trkpt>
      <trkpt lat="48.81967" lon="2.00041">
        <ele>109.73</ele>
        <time>2012-01-06T13:24:59Z</time>
      </trkpt>
      <trkpt lat="48.81965" lon="2.0005">
        <ele>110.21</ele>
        <time>2012-01-06T13:25:04Z</time>
      </trkpt>
      <trkpt lat="48.81963" lon="2.00058">
        <ele>109.73</ele>
        <time>2012-01-06T13:25:08Z</time>
      </trkpt>
      <trkpt lat="48.81958" lon="2.00081">
        <ele>108.29</ele>
        <time>2012-01-06T13:25:21Z</time>
      </trkpt>
      <trkpt lat="48.81951" lon="2.00108">
        <ele>109.25</ele>
        <time>2012-01-06T13:25:34Z</time>
      </trkpt>
      <trkpt lat="48.81949" lon="2.00137">
        <ele>109.73</ele>
        <time>2012-01-06T13:25:48Z</time>
      </trkpt>
      <trkpt lat="48.81944" lon="2.00168">
        <ele>108.77</ele>
        <time>2012-01-06T13:26:02Z</time>
      </trkpt>
      <trkpt lat="48.81943" lon="2.002">
        <ele>106.84</ele>
        <time>2012-01-06T13:26:18Z</time>
      </trkpt>
      <trkpt lat="48.81941" lon="2.00208">
        <ele>106.36</ele>
        <time>2012-01-06T13:26:23Z</time>
      </trkpt>
      <trkpt lat="48.81935" lon="2.00236">
        <ele>106.84</ele>
        <time>2012-01-06T13:26:36Z</time>
      </trkpt>
      <trkpt lat="48.81936" lon="2.00254">
        <ele>107.32</ele>
        <time>2012-01-06T13:26:45Z</time>
      </trkpt>
      <trkpt lat="48.8194" lon="2.00289">
        <ele>105.4</ele>
        <time>2012-01-06T13:27:01Z</time>
      </trkpt>
      <trkpt lat="48.81956" lon="2.00344">
        <ele>104.92</ele>
        <time>2012-01-06T13:27:30Z</time>
      </trkpt>
      <trkpt lat="48.8196" lon="2.00385">
        <ele>104.92</ele>
        <time>2012-01-06T13:27:46Z</time>
      </trkpt>
      <trkpt lat="48.81967" lon="2.00413">
        <ele>105.88</ele>
        <time>2012-01-06T13:28:01Z</time>
      </trkpt>
      <trkpt lat="48.81967" lon="2.00418">
        <ele>106.36</ele>
        <time>2012-01-06T13:28:04Z</time>
      </trkpt>
      <trkpt lat="48.81962" lon="2.00434">
        <ele>106.84</ele>
        <time>2012-01-06T13:28:11Z</time>
      </trkpt>
      <trkpt lat="48.81951" lon="2.00466">
        <ele>106.36</ele>
        <time>2012-01-06T13:28:27Z</time>
      </trkpt>
      <trkpt lat="48.81941" lon="2.00495">
        <ele>106.36</ele>
        <time>2012-01-06T13:28:42Z</time>
      </trkpt>
      <trkpt lat="48.8193" lon="2.00525">
        <ele>105.88</ele>
        <time>2012-01-06T13:28:58Z</time>
      </trkpt>
      <trkpt lat="48.81921" lon="2.00551">
        <ele>105.88</ele>
        <time>2012-01-06T13:29:12Z</time>
      </trkpt>
      <trkpt lat="48.81912" lon="2.00578">
        <ele>107.32</ele>
        <time>2012-01-06T13:29:27Z</time>
      </trkpt>
      <trkpt lat="48.81902" lon="2.00605">
        <ele>107.81</ele>
        <time>2012-01-06T13:29:42Z</time>
      </trkpt>
      <trkpt lat="48.81893" lon="2.00632">
        <ele>108.29</ele>
        <time>2012-01-06T13:29:56Z</time>
      </trkpt>
      <trkpt lat="48.81882" lon="2.00662">
        <ele>107.81</ele>
        <time>2012-01-06T13:30:12Z</time>
      </trkpt>
      <trkpt lat="48.8188" lon="2.00691">
        <ele>107.81</ele>
        <time>2012-01-06T13:30:26Z</time>
      </trkpt>
      <trkpt lat="48.81884" lon="2.00723">
        <ele>106.36</ele>
        <time>2012-01-06T13:30:41Z</time>
      </trkpt>
      <trkpt lat="48.81891" lon="2.00755">
        <ele>106.36</ele>
        <time>2012-01-06T13:30:58Z</time>
      </trkpt>
      <trkpt lat="48.81893" lon="2.00771">
        <ele>106.36</ele>
        <time>2012-01-06T13:31:07Z</time>
      </trkpt>
      <trkpt lat="48.81892" lon="2.00776">
        <ele>105.88</ele>
        <time>2012-01-06T13:31:18Z</time>
      </trkpt>
      <trkpt lat="48.81897" lon="2.00789">
        <ele>106.36</ele>
        <time>2012-01-06T13:31:26Z</time>
      </trkpt>
      <trkpt lat="48.81903" lon="2.00817">
        <ele>105.88</ele>
        <time>2012-01-06T13:31:41Z</time>
      </trkpt>
      <trkpt lat="48.81905" lon="2.00829">
        <ele>104.44</ele>
        <time>2012-01-06T13:31:48Z</time>
      </trkpt>
      <trkpt lat="48.81907" lon="2.00854">
        <ele>103.96</ele>
        <time>2012-01-06T13:32:02Z</time>
      </trkpt>
      <trkpt lat="48.81913" lon="2.00884">
        <ele>102.52</ele>
        <time>2012-01-06T13:32:17Z</time>
      </trkpt>
      <trkpt lat="48.81916" lon="2.00897">
        <ele>101.56</ele>
        <time>2012-01-06T13:32:23Z</time>
      </trkpt>
      <trkpt lat="48.81922" lon="2.00922">
        <ele>102.04</ele>
        <time>2012-01-06T13:32:36Z</time>
      </trkpt>
      <trkpt lat="48.81924" lon="2.00952">
        <ele>99.63</ele>
        <time>2012-01-06T13:32:52Z</time>
      </trkpt>
      <trkpt lat="48.8193" lon="2.00986">
        <ele>97.23</ele>
        <time>2012-01-06T13:33:10Z</time>
      </trkpt>
      <trkpt lat="48.81932" lon="2.0099">
        <ele>96.75</ele>
        <time>2012-01-06T13:33:12Z</time>
      </trkpt>
      <trkpt lat="48.81941" lon="2.01019">
        <ele>98.19</ele>
        <time>2012-01-06T13:33:28Z</time>
      </trkpt>
      <trkpt lat="48.81944" lon="2.01051">
        <ele>99.63</ele>
        <time>2012-01-06T13:33:43Z</time>
      </trkpt>
      <trkpt lat="48.81948" lon="2.01075">
        <ele>98.19</ele>
        <time>2012-01-06T13:33:57Z</time>
      </trkpt>
      <trkpt lat="48.81951" lon="2.01103">
        <ele>96.75</ele>
        <time>2012-01-06T13:34:12Z</time>
      </trkpt>
      <trkpt lat="48.81956" lon="2.01129">
        <ele>95.79</ele>
        <time>2012-01-06T13:34:27Z</time>
      </trkpt>
      <trkpt lat="48.81963" lon="2.01159">
        <ele>96.75</ele>
        <time>2012-01-06T13:34:43Z</time>
      </trkpt>
      <trkpt lat="48.8197" lon="2.01191">
        <ele>96.27</ele>
        <time>2012-01-06T13:34:59Z</time>
      </trkpt>
      <trkpt lat="48.81974" lon="2.01204">
        <ele>96.75</ele>
        <time>2012-01-06T13:35:05Z</time>
      </trkpt>
      <trkpt lat="48.81977" lon="2.0122">
        <ele>97.71</ele>
        <time>2012-01-06T13:35:13Z</time>
      </trkpt>
      <trkpt lat="48.81977" lon="2.01225">
        <ele>97.71</ele>
        <time>2012-01-06T13:35:15Z</time>
      </trkpt>
      <trkpt lat="48.81982" lon="2.01252">
        <ele>97.23</ele>
        <time>2012-01-06T13:35:30Z</time>
      </trkpt>
      <trkpt lat="48.81983" lon="2.01259">
        <ele>96.27</ele>
        <time>2012-01-06T13:35:34Z</time>
      </trkpt>
      <trkpt lat="48.81991" lon="2.01284">
        <ele>91.94</ele>
        <time>2012-01-06T13:35:50Z</time>
      </trkpt>
      <trkpt lat="48.81992" lon="2.01287">
        <ele>91.46</ele>
        <time>2012-01-06T13:35:52Z</time>
      </trkpt>
      <trkpt lat="48.82002" lon="2.01314">
        <ele>87.62</ele>
        <time>2012-01-06T13:36:08Z</time>
      </trkpt>
      <trkpt lat="48.82011" lon="2.01338">
        <ele>82.33</ele>
        <time>2012-01-06T13:36:25Z</time>
      </trkpt>
      <trkpt lat="48.82013" lon="2.01343">
        <ele>82.33</ele>
        <time>2012-01-06T13:36:29Z</time>
      </trkpt>
      <trkpt lat="48.82013" lon="2.01362">
        <ele>82.33</ele>
        <time>2012-01-06T13:36:39Z</time>
      </trkpt>
      <trkpt lat="48.82013" lon="2.01401">
        <ele>90.5</ele>
        <time>2012-01-06T13:36:53Z</time>
      </trkpt>
      <trkpt lat="48.82014" lon="2.01438">
        <ele>95.31</ele>
        <time>2012-01-06T13:37:07Z</time>
      </trkpt>
      <trkpt lat="48.82015" lon="2.01447">
        <ele>95.79</ele>
        <time>2012-01-06T13:37:11Z</time>
      </trkpt>
      <trkpt lat="48.82017" lon="2.01457">
        <ele>95.79</ele>
        <time>2012-01-06T13:37:16Z</time>
      </trkpt>
      <trkpt lat="48.82021" lon="2.01492">
        <ele>97.23</ele>
        <time>2012-01-06T13:37:32Z</time>
      </trkpt>
      <trkpt lat="48.82025" lon="2.01521">
        <ele>99.63</ele>
        <time>2012-01-06T13:37:46Z</time>
      </trkpt>
      <trkpt lat="48.82028" lon="2.01551">
        <ele>100.6</ele>
        <time>2012-01-06T13:38:00Z</time>
      </trkpt>
      <trkpt lat="48.82028" lon="2.01579">
        <ele>101.08</ele>
        <time>2012-01-06T13:38:15Z</time>
      </trkpt>
      <trkpt lat="48.82023" lon="2.016">
        <ele>102.52</ele>
        <time>2012-01-06T13:38:27Z</time>
      </trkpt>
      <trkpt lat="48.82017" lon="2.01625">
        <ele>102.04</ele>
        <time>2012-01-06T13:38:41Z</time>
      </trkpt>
      <trkpt lat="48.82009" lon="2.01651">
        <ele>102.04</ele>
        <time>2012-01-06T13:38:54Z</time>
      </trkpt>
      <trkpt lat="48.82001" lon="2.0168">
        <ele>103</ele>
        <time>2012-01-06T13:39:09Z</time>
      </trkpt>
      <trkpt lat="48.81992" lon="2.01707">
        <ele>103.48</ele>
        <time>2012-01-06T13:39:22Z</time>
      </trkpt>
      <trkpt lat="48.81982" lon="2.0174">
        <ele>104.92</ele>
        <time>2012-01-06T13:39:38Z</time>
      </trkpt>
      <trkpt lat="48.81974" lon="2.0177">
        <ele>104.44</ele>
        <time>2012-01-06T13:39:53Z</time>
      </trkpt>
      <trkpt lat="48.81967" lon="2.01793">
        <ele>103.48</ele>
        <time>2012-01-06T13:40:06Z</time>
      </trkpt>
      <trkpt lat="48.81959" lon="2.01822">
        <ele>103.48</ele>
        <time>2012-01-06T13:40:21Z</time>
      </trkpt>
      <trkpt lat="48.8195" lon="2.01853">
        <ele>104.44</ele>
        <time>2012-01-06T13:40:37Z</time>
      </trkpt>
      <trkpt lat="48.8194" lon="2.01881">
        <ele>105.4</ele>
        <time>2012-01-06T13:40:53Z</time>
      </trkpt>
      <trkpt lat="48.81928" lon="2.01906">
        <ele>105.88</ele>
        <time>2012-01-06T13:41:08Z</time>
      </trkpt>
      <trkpt lat="48.81916" lon="2.01927">
        <ele>105.88</ele>
        <time>2012-01-06T13:41:22Z</time>
      </trkpt>
      <trkpt lat="48.81901" lon="2.01956">
        <ele>105.4</ele>
        <time>2012-01-06T13:41:40Z</time>
      </trkpt>
      <trkpt lat="48.81887" lon="2.01981">
        <ele>106.36</ele>
        <time>2012-01-06T13:41:56Z</time>
      </trkpt>
      <trkpt lat="48.81875" lon="2.02003">
        <ele>106.84</ele>
        <time>2012-01-06T13:42:10Z</time>
      </trkpt>
      <trkpt lat="48.81861" lon="2.02026">
        <ele>107.32</ele>
        <time>2012-01-06T13:42:25Z</time>
      </trkpt>
      <trkpt lat="48.81856" lon="2.02035">
        <ele>106.84</ele>
        <time>2012-01-06T13:42:31Z</time>
      </trkpt>
      <trkpt lat="48.81856" lon="2.02051">
        <ele>104.92</ele>
        <time>2012-01-06T13:42:40Z</time>
      </trkpt>
      <trkpt lat="48.81857" lon="2.02079">
        <ele>101.08</ele>
        <time>2012-01-06T13:42:54Z</time>
      </trkpt>
      <trkpt lat="48.81859" lon="2.02106">
        <ele>98.67</ele>
        <time>2012-01-06T13:43:08Z</time>
      </trkpt>
      <trkpt lat="48.81861" lon="2.02134">
        <ele>96.75</ele>
        <time>2012-01-06T13:43:22Z</time>
      </trkpt>
      <trkpt lat="48.81862" lon="2.02158">
        <ele>98.19</ele>
        <time>2012-01-06T13:43:35Z</time>
      </trkpt>
      <trkpt lat="48.81862" lon="2.0216">
        <ele>98.19</ele>
        <time>2012-01-06T13:43:36Z</time>
      </trkpt>
      <trkpt lat="48.81858" lon="2.02182">
        <ele>103</ele>
        <time>2012-01-06T13:43:49Z</time>
      </trkpt>
      <trkpt lat="48.81859" lon="2.02204">
        <ele>104.92</ele>
        <time>2012-01-06T13:44:02Z</time>
      </trkpt>
      <trkpt lat="48.81858" lon="2.02211">
        <ele>105.4</ele>
        <time>2012-01-06T13:44:06Z</time>
      </trkpt>
      <trkpt lat="48.81866" lon="2.02215">
        <ele>105.88</ele>
        <time>2012-01-06T13:44:13Z</time>
      </trkpt>
      <trkpt lat="48.81872" lon="2.02205">
        <ele>106.36</ele>
        <time>2012-01-06T13:44:20Z</time>
      </trkpt>
      <trkpt lat="48.81881" lon="2.0221">
        <ele>105.88</ele>
        <time>2012-01-06T13:44:28Z</time>
      </trkpt>
      <trkpt lat="48.81897" lon="2.02229">
        <ele>105.4</ele>
        <time>2012-01-06T13:44:44Z</time>
      </trkpt>
      <trkpt lat="48.81911" lon="2.02248">
        <ele>104.92</ele>
        <time>2012-01-06T13:44:58Z</time>
      </trkpt>
      <trkpt lat="48.81925" lon="2.02267">
        <ele>104.92</ele>
        <time>2012-01-06T13:45:13Z</time>
      </trkpt>
      <trkpt lat="48.81942" lon="2.02291">
        <ele>103.96</ele>
        <time>2012-01-06T13:45:30Z</time>
      </trkpt>
      <trkpt lat="48.81958" lon="2.02312">
        <ele>103.96</ele>
        <time>2012-01-06T13:45:46Z</time>
      </trkpt>
      <trkpt lat="48.81971" lon="2.02331">
        <ele>103.96</ele>
        <time>2012-01-06T13:46:00Z</time>
      </trkpt>
      <trkpt lat="48.81987" lon="2.0235">
        <ele>105.4</ele>
        <time>2012-01-06T13:46:15Z</time>
      </trkpt>
      <trkpt lat="48.82002" lon="2.02369">
        <ele>106.36</ele>
        <time>2012-01-06T13:46:30Z</time>
      </trkpt>
      <trkpt lat="48.82017" lon="2.02388">
        <ele>106.84</ele>
        <time>2012-01-06T13:46:45Z</time>
      </trkpt>
      <trkpt lat="48.82031" lon="2.02408">
        <ele>106.84</ele>
        <time>2012-01-06T13:47:00Z</time>
      </trkpt>
      <trkpt lat="48.82046" lon="2.02428">
        <ele>105.88</ele>
        <time>2012-01-06T13:47:14Z</time>
      </trkpt>
      <trkpt lat="48.82058" lon="2.02445">
        <ele>106.36</ele>
        <time>2012-01-06T13:47:27Z</time>
      </trkpt>
      <trkpt lat="48.82074" lon="2.02465">
        <ele>106.84</ele>
        <time>2012-01-06T13:47:43Z</time>
      </trkpt>
      <trkpt lat="48.82087" lon="2.02483">
        <ele>106.84</ele>
        <time>2012-01-06T13:47:56Z</time>
      </trkpt>
      <trkpt lat="48.82101" lon="2.02501">
        <ele>107.32</ele>
        <time>2012-01-06T13:48:10Z</time>
      </trkpt>
      <trkpt lat="48.82114" lon="2.02519">
        <ele>107.32</ele>
        <time>2012-01-06T13:48:24Z</time>
      </trkpt>
      <trkpt lat="48.82126" lon="2.0254">
        <ele>107.32</ele>
        <time>2012-01-06T13:48:38Z</time>
      </trkpt>
      <trkpt lat="48.82123" lon="2.02562">
        <ele>106.84</ele>
        <time>2012-01-06T13:48:51Z</time>
      </trkpt>
      <trkpt lat="48.82123" lon="2.02563">
        <ele>107.32</ele>
        <time>2012-01-06T13:48:52Z</time>
      </trkpt>
      <trkpt lat="48.82124" lon="2.02588">
        <ele>107.32</ele>
        <time>2012-01-06T13:49:05Z</time>
      </trkpt>
      <trkpt lat="48.82124" lon="2.02617">
        <ele>106.36</ele>
        <time>2012-01-06T13:49:20Z</time>
      </trkpt>
      <trkpt lat="48.82125" lon="2.02646">
        <ele>106.36</ele>
        <time>2012-01-06T13:49:35Z</time>
      </trkpt>
      <trkpt lat="48.82125" lon="2.02673">
        <ele>106.84</ele>
        <time>2012-01-06T13:49:49Z</time>
      </trkpt>
      <trkpt lat="48.82125" lon="2.02703">
        <ele>106.36</ele>
        <time>2012-01-06T13:50:05Z</time>
      </trkpt>
      <trkpt lat="48.82125" lon="2.02735">
        <ele>107.81</ele>
        <time>2012-01-06T13:50:20Z</time>
      </trkpt>
      <trkpt lat="48.82124" lon="2.02764">
        <ele>108.77</ele>
        <time>2012-01-06T13:50:34Z</time>
      </trkpt>
      <trkpt lat="48.82124" lon="2.02793">
        <ele>108.77</ele>
        <time>2012-01-06T13:50:49Z</time>
      </trkpt>
      <trkpt lat="48.82124" lon="2.02822">
        <ele>108.29</ele>
        <time>2012-01-06T13:51:04Z</time>
      </trkpt>
      <trkpt lat="48.82123" lon="2.02849">
        <ele>108.29</ele>
        <time>2012-01-06T13:51:17Z</time>
      </trkpt>
      <trkpt lat="48.82123" lon="2.02862">
        <ele>107.81</ele>
        <time>2012-01-06T13:51:24Z</time>
      </trkpt>
      <trkpt lat="48.8212" lon="2.02874">
        <ele>107.81</ele>
        <time>2012-01-06T13:51:30Z</time>
      </trkpt>
      <trkpt lat="48.82118" lon="2.02881">
        <ele>107.81</ele>
        <time>2012-01-06T13:51:34Z</time>
      </trkpt>
      <trkpt lat="48.82117" lon="2.02883">
        <ele>107.81</ele>
        <time>2012-01-06T13:51:49Z</time>
      </trkpt>
      <trkpt lat="48.82117" lon="2.02883">
        <ele>107.81</ele>
        <time>2012-01-06T13:52:15Z</time>
      </trkpt>
      <trkpt lat="48.8212" lon="2.02912">
        <ele>107.81</ele>
        <time>2012-01-06T13:52:30Z</time>
      </trkpt>
      <trkpt lat="48.82119" lon="2.02943">
        <ele>108.29</ele>
        <time>2012-01-06T13:52:45Z</time>
      </trkpt>
      <trkpt lat="48.82119" lon="2.02973">
        <ele>109.25</ele>
        <time>2012-01-06T13:53:00Z</time>
      </trkpt>
      <trkpt lat="48.82118" lon="2.03001">
        <ele>109.73</ele>
        <time>2012-01-06T13:53:14Z</time>
      </trkpt>
      <trkpt lat="48.82118" lon="2.03029">
        <ele>109.73</ele>
        <time>2012-01-06T13:53:28Z</time>
      </trkpt>
      <trkpt lat="48.82118" lon="2.0306">
        <ele>110.69</ele>
        <time>2012-01-06T13:53:43Z</time>
      </trkpt>
      <trkpt lat="48.82118" lon="2.0309">
        <ele>110.21</ele>
        <time>2012-01-06T13:53:57Z</time>
      </trkpt>
      <trkpt lat="48.82117" lon="2.0312">
        <ele>110.21</ele>
        <time>2012-01-06T13:54:12Z</time>
      </trkpt>
      <trkpt lat="48.82119" lon="2.03146">
        <ele>109.25</ele>
        <time>2012-01-06T13:54:25Z</time>
      </trkpt>
      <trkpt lat="48.82118" lon="2.03178">
        <ele>107.81</ele>
        <time>2012-01-06T13:54:40Z</time>
      </trkpt>
      <trkpt lat="48.82118" lon="2.03206">
        <ele>105.88</ele>
        <time>2012-01-06T13:54:54Z</time>
      </trkpt>
      <trkpt lat="48.82117" lon="2.03239">
        <ele>104.44</ele>
        <time>2012-01-06T13:55:10Z</time>
      </trkpt>
      <trkpt lat="48.82117" lon="2.03241">
        <ele>104.92</ele>
        <time>2012-01-06T13:55:20Z</time>
      </trkpt>
      <trkpt lat="48.82109" lon="2.03263">
        <ele>105.4</ele>
        <time>2012-01-06T13:55:33Z</time>
      </trkpt>
      <trkpt lat="48.82097" lon="2.03289">
        <ele>104.92</ele>
        <time>2012-01-06T13:55:48Z</time>
      </trkpt>
      <trkpt lat="48.82086" lon="2.03315">
        <ele>104.92</ele>
        <time>2012-01-06T13:56:03Z</time>
      </trkpt>
      <trkpt lat="48.82084" lon="2.03321">
        <ele>104.92</ele>
        <time>2012-01-06T13:56:06Z</time>
      </trkpt>
      <trkpt lat="48.8207" lon="2.03347">
        <ele>103.96</ele>
        <time>2012-01-06T13:56:22Z</time>
      </trkpt>
      <trkpt lat="48.8206" lon="2.03369">
        <ele>103.48</ele>
        <time>2012-01-06T13:56:35Z</time>
      </trkpt>
      <trkpt lat="48.82049" lon="2.03392">
        <ele>103.48</ele>
        <time>2012-01-06T13:56:49Z</time>
      </trkpt>
      <trkpt lat="48.8204" lon="2.03412">
        <ele>103.48</ele>
        <time>2012-01-06T13:57:01Z</time>
      </trkpt>
      <trkpt lat="48.82031" lon="2.03433">
        <ele>103.96</ele>
        <time>2012-01-06T13:57:14Z</time>
      </trkpt>
      <trkpt lat="48.8202" lon="2.03454">
        <ele>105.4</ele>
        <time>2012-01-06T13:57:27Z</time>
      </trkpt>
      <trkpt lat="48.8201" lon="2.03474">
        <ele>105.4</ele>
        <time>2012-01-06T13:57:39Z</time>
      </trkpt>
      <trkpt lat="48.82" lon="2.03496">
        <ele>106.36</ele>
        <time>2012-01-06T13:57:53Z</time>
      </trkpt>
      <trkpt lat="48.81989" lon="2.0352">
        <ele>106.36</ele>
        <time>2012-01-06T13:58:07Z</time>
      </trkpt>
      <trkpt lat="48.81978" lon="2.03542">
        <ele>106.36</ele>
        <time>2012-01-06T13:58:21Z</time>
      </trkpt>
      <trkpt lat="48.81965" lon="2.03566">
        <ele>105.88</ele>
        <time>2012-01-06T13:58:36Z</time>
      </trkpt>
      <trkpt lat="48.8196" lon="2.03575">
        <ele>105.4</ele>
        <time>2012-01-06T13:58:42Z</time>
      </trkpt>
      <trkpt lat="48.81948" lon="2.03587">
        <ele>104.44</ele>
        <time>2012-01-06T13:58:57Z</time>
      </trkpt>
      <trkpt lat="48.81936" lon="2.03597">
        <ele>104.44</ele>
        <time>2012-01-06T13:59:12Z</time>
      </trkpt>
      <trkpt lat="48.81919" lon="2.03613">
        <ele>105.4</ele>
        <time>2012-01-06T13:59:27Z</time>
      </trkpt>
      <trkpt lat="48.81904" lon="2.03625">
        <ele>105.4</ele>
        <time>2012-01-06T13:59:40Z</time>
      </trkpt>
      <trkpt lat="48.81885" lon="2.03641">
        <ele>105.4</ele>
        <time>2012-01-06T13:59:56Z</time>
      </trkpt>
      <trkpt lat="48.81868" lon="2.03657">
        <ele>106.36</ele>
        <time>2012-01-06T14:00:11Z</time>
      </trkpt>
      <trkpt lat="48.81851" lon="2.0367">
        <ele>106.36</ele>
        <time>2012-01-06T14:00:26Z</time>
      </trkpt>
      <trkpt lat="48.81834" lon="2.03685">
        <ele>107.32</ele>
        <time>2012-01-06T14:00:41Z</time>
      </trkpt>
      <trkpt lat="48.81818" lon="2.037">
        <ele>107.32</ele>
        <time>2012-01-06T14:00:56Z</time>
      </trkpt>
      <trkpt lat="48.81799" lon="2.03716">
        <ele>106.84</ele>
        <time>2012-01-06T14:01:12Z</time>
      </trkpt>
      <trkpt lat="48.81783" lon="2.03729">
        <ele>106.36</ele>
        <time>2012-01-06T14:01:26Z</time>
      </trkpt>
      <trkpt lat="48.81766" lon="2.03746">
        <ele>106.84</ele>
        <time>2012-01-06T14:01:41Z</time>
      </trkpt>
      <trkpt lat="48.8175" lon="2.03758">
        <ele>105.88</ele>
        <time>2012-01-06T14:01:54Z</time>
      </trkpt>
      <trkpt lat="48.81736" lon="2.03772">
        <ele>106.36</ele>
        <time>2012-01-06T14:02:06Z</time>
      </trkpt>
      <trkpt lat="48.81727" lon="2.03781">
        <ele>106.36</ele>
        <time>2012-01-06T14:02:15Z</time>
      </trkpt>
      <trkpt lat="48.81707" lon="2.03796">
        <ele>106.84</ele>
        <time>2012-01-06T14:02:31Z</time>
      </trkpt>
      <trkpt lat="48.81699" lon="2.03806">
        <ele>106.84</ele>
        <time>2012-01-06T14:02:46Z</time>
      </trkpt>
      <trkpt lat="48.81699" lon="2.03806">
        <ele>106.84</ele>
        <time>2012-01-06T14:03:16Z</time>
      </trkpt>
      <trkpt lat="48.81699" lon="2.03806">
        <ele>106.84</ele>
        <time>2012-01-06T14:03:48Z</time>
      </trkpt>
      <trkpt lat="48.81699" lon="2.03806">
        <ele>106.84</ele>
        <time>2012-01-06T14:04:19Z</time>
      </trkpt>
      <trkpt lat="48.81699" lon="2.03806">
        <ele>106.84</ele>
        <time>2012-01-06T14:04:52Z</time>
      </trkpt>
      <trkpt lat="48.81695" lon="2.03819">
        <ele>106.36</ele>
        <time>2012-01-06T14:05:15Z</time>
      </trkpt>
      <trkpt lat="48.81695" lon="2.03821">
        <ele>105.88</ele>
        <time>2012-01-06T14:05:16Z</time>
      </trkpt>
      <trkpt lat="48.81694" lon="2.03827">
        <ele>105.4</ele>
        <time>2012-01-06T14:05:19Z</time>
      </trkpt>
      <trkpt lat="48.81701" lon="2.03855">
        <ele>104.92</ele>
        <time>2012-01-06T14:05:33Z</time>
      </trkpt>
      <trkpt lat="48.81709" lon="2.0387">
        <ele>103.96</ele>
        <time>2012-01-06T14:05:45Z</time>
      </trkpt>
      <trkpt lat="48.81721" lon="2.03894">
        <ele>104.44</ele>
        <time>2012-01-06T14:06:00Z</time>
      </trkpt>
      <trkpt lat="48.81731" lon="2.03918">
        <ele>103.96</ele>
        <time>2012-01-06T14:06:14Z</time>
      </trkpt>
      <trkpt lat="48.81743" lon="2.03938">
        <ele>104.92</ele>
        <time>2012-01-06T14:06:27Z</time>
      </trkpt>
      <trkpt lat="48.81754" lon="2.0396">
        <ele>104.44</ele>
        <time>2012-01-06T14:06:41Z</time>
      </trkpt>
      <trkpt lat="48.81765" lon="2.03979">
        <ele>106.84</ele>
        <time>2012-01-06T14:06:54Z</time>
      </trkpt>
      <trkpt lat="48.81778" lon="2.04001">
        <ele>106.36</ele>
        <time>2012-01-06T14:07:09Z</time>
      </trkpt>
      <trkpt lat="48.81791" lon="2.04022">
        <ele>104.92</ele>
        <time>2012-01-06T14:07:23Z</time>
      </trkpt>
      <trkpt lat="48.81803" lon="2.04043">
        <ele>104.92</ele>
        <time>2012-01-06T14:07:37Z</time>
      </trkpt>
      <trkpt lat="48.81816" lon="2.04065">
        <ele>104.92</ele>
        <time>2012-01-06T14:07:52Z</time>
      </trkpt>
      <trkpt lat="48.81829" lon="2.04089">
        <ele>103.96</ele>
        <time>2012-01-06T14:08:07Z</time>
      </trkpt>
      <trkpt lat="48.81835" lon="2.04097">
        <ele>104.92</ele>
        <time>2012-01-06T14:08:13Z</time>
      </trkpt>
      <trkpt lat="48.81841" lon="2.04098">
        <ele>105.4</ele>
        <time>2012-01-06T14:08:17Z</time>
      </trkpt>
      <trkpt lat="48.81848" lon="2.04105">
        <ele>104.92</ele>
        <time>2012-01-06T14:08:24Z</time>
      </trkpt>
      <trkpt lat="48.81866" lon="2.04098">
        <ele>105.88</ele>
        <time>2012-01-06T14:08:39Z</time>
      </trkpt>
      <trkpt lat="48.81883" lon="2.04084">
        <ele>105.88</ele>
        <time>2012-01-06T14:08:53Z</time>
      </trkpt>
      <trkpt lat="48.81896" lon="2.04074">
        <ele>105.4</ele>
        <time>2012-01-06T14:09:05Z</time>
      </trkpt>
      <trkpt lat="48.81902" lon="2.04072">
        <ele>104.92</ele>
        <time>2012-01-06T14:09:09Z</time>
      </trkpt>
      <trkpt lat="48.81919" lon="2.04061">
        <ele>104.92</ele>
        <time>2012-01-06T14:09:25Z</time>
      </trkpt>
      <trkpt lat="48.81923" lon="2.0406">
        <ele>104.44</ele>
        <time>2012-01-06T14:09:36Z</time>
      </trkpt>
      <trkpt lat="48.81923" lon="2.0406">
        <ele>104.44</ele>
        <time>2012-01-06T14:09:38Z</time>
      </trkpt>
      <trkpt lat="48.81916" lon="2.0407">
        <ele>103.48</ele>
        <time>2012-01-06T14:09:46Z</time>
      </trkpt>
      <trkpt lat="48.81897" lon="2.04088">
        <ele>103.48</ele>
        <time>2012-01-06T14:10:03Z</time>
      </trkpt>
      <trkpt lat="48.81878" lon="2.04103">
        <ele>104.44</ele>
        <time>2012-01-06T14:10:19Z</time>
      </trkpt>
      <trkpt lat="48.81864" lon="2.04115">
        <ele>104.92</ele>
        <time>2012-01-06T14:10:31Z</time>
      </trkpt>
      <trkpt lat="48.81861" lon="2.04119">
        <ele>105.4</ele>
        <time>2012-01-06T14:10:34Z</time>
      </trkpt>
      <trkpt lat="48.81857" lon="2.04132">
        <ele>105.88</ele>
        <time>2012-01-06T14:10:41Z</time>
      </trkpt>
      <trkpt lat="48.81867" lon="2.0416">
        <ele>105.88</ele>
        <time>2012-01-06T14:10:57Z</time>
      </trkpt>
      <trkpt lat="48.81875" lon="2.04174">
        <ele>105.88</ele>
        <time>2012-01-06T14:11:06Z</time>
      </trkpt>
      <trkpt lat="48.81881" lon="2.04181">
        <ele>105.88</ele>
        <time>2012-01-06T14:11:12Z</time>
      </trkpt>
      <trkpt lat="48.81889" lon="2.04193">
        <ele>104.92</ele>
        <time>2012-01-06T14:11:20Z</time>
      </trkpt>
      <trkpt lat="48.81902" lon="2.04216">
        <ele>103.48</ele>
        <time>2012-01-06T14:11:35Z</time>
      </trkpt>
      <trkpt lat="48.81915" lon="2.04237">
        <ele>103.48</ele>
        <time>2012-01-06T14:11:50Z</time>
      </trkpt>
      <trkpt lat="48.81917" lon="2.0424">
        <ele>104.44</ele>
        <time>2012-01-06T14:12:06Z</time>
      </trkpt>
      <trkpt lat="48.81928" lon="2.04263">
        <ele>104.92</ele>
        <time>2012-01-06T14:12:20Z</time>
      </trkpt>
      <trkpt lat="48.8194" lon="2.04284">
        <ele>103.96</ele>
        <time>2012-01-06T14:12:34Z</time>
      </trkpt>
      <trkpt lat="48.81952" lon="2.04307">
        <ele>103.48</ele>
        <time>2012-01-06T14:12:49Z</time>
      </trkpt>
      <trkpt lat="48.81965" lon="2.04332">
        <ele>104.92</ele>
        <time>2012-01-06T14:13:05Z</time>
      </trkpt>
      <trkpt lat="48.81977" lon="2.04357">
        <ele>105.4</ele>
        <time>2012-01-06T14:13:21Z</time>
      </trkpt>
      <trkpt lat="48.81989" lon="2.04375">
        <ele>105.4</ele>
        <time>2012-01-06T14:13:34Z</time>
      </trkpt>
      <trkpt lat="48.82" lon="2.04393">
        <ele>105.4</ele>
        <time>2012-01-06T14:13:47Z</time>
      </trkpt>
      <trkpt lat="48.82012" lon="2.04418">
        <ele>104.92</ele>
        <time>2012-01-06T14:14:02Z</time>
      </trkpt>
      <trkpt lat="48.82023" lon="2.04441">
        <ele>103.48</ele>
        <time>2012-01-06T14:14:16Z</time>
      </trkpt>
      <trkpt lat="48.82032" lon="2.04463">
        <ele>102.52</ele>
        <time>2012-01-06T14:14:29Z</time>
      </trkpt>
      <trkpt lat="48.82036" lon="2.04491">
        <ele>103.48</ele>
        <time>2012-01-06T14:14:44Z</time>
      </trkpt>
      <trkpt lat="48.8204" lon="2.04516">
        <ele>105.4</ele>
        <time>2012-01-06T14:14:57Z</time>
      </trkpt>
      <trkpt lat="48.82044" lon="2.04541">
        <ele>106.84</ele>
        <time>2012-01-06T14:15:11Z</time>
      </trkpt>
      <trkpt lat="48.82045" lon="2.04551">
        <ele>107.32</ele>
        <time>2012-01-06T14:15:16Z</time>
      </trkpt>
      <trkpt lat="48.82047" lon="2.04559">
        <ele>108.29</ele>
        <time>2012-01-06T14:15:20Z</time>
      </trkpt>
      <trkpt lat="48.82052" lon="2.04592">
        <ele>109.25</ele>
        <time>2012-01-06T14:15:37Z</time>
      </trkpt>
      <trkpt lat="48.82056" lon="2.04621">
        <ele>110.69</ele>
        <time>2012-01-06T14:15:52Z</time>
      </trkpt>
      <trkpt lat="48.8206" lon="2.04642">
        <ele>109.73</ele>
        <time>2012-01-06T14:16:03Z</time>
      </trkpt>
      <trkpt lat="48.82066" lon="2.04673">
        <ele>108.77</ele>
        <time>2012-01-06T14:16:20Z</time>
      </trkpt>
      <trkpt lat="48.8207" lon="2.04694">
        <ele>108.29</ele>
        <time>2012-01-06T14:16:32Z</time>
      </trkpt>
      <trkpt lat="48.8207" lon="2.047">
        <ele>108.29</ele>
        <time>2012-01-06T14:16:35Z</time>
      </trkpt>
      <trkpt lat="48.82071" lon="2.04703">
        <ele>108.29</ele>
        <time>2012-01-06T14:16:37Z</time>
      </trkpt>
      <trkpt lat="48.82073" lon="2.04714">
        <ele>108.77</ele>
        <time>2012-01-06T14:16:43Z</time>
      </trkpt>
      <trkpt lat="48.82077" lon="2.0474">
        <ele>109.25</ele>
        <time>2012-01-06T14:16:57Z</time>
      </trkpt>
      <trkpt lat="48.82082" lon="2.04769">
        <ele>107.81</ele>
        <time>2012-01-06T14:17:12Z</time>
      </trkpt>
      <trkpt lat="48.82086" lon="2.04797">
        <ele>106.36</ele>
        <time>2012-01-06T14:17:26Z</time>
      </trkpt>
      <trkpt lat="48.82083" lon="2.04825">
        <ele>106.84</ele>
        <time>2012-01-06T14:17:40Z</time>
      </trkpt>
      <trkpt lat="48.82075" lon="2.0485">
        <ele>108.29</ele>
        <time>2012-01-06T14:17:54Z</time>
      </trkpt>
      <trkpt lat="48.82068" lon="2.0487">
        <ele>109.25</ele>
        <time>2012-01-06T14:18:05Z</time>
      </trkpt>
      <trkpt lat="48.82058" lon="2.04895">
        <ele>110.69</ele>
        <time>2012-01-06T14:18:20Z</time>
      </trkpt>
      <trkpt lat="48.82048" lon="2.04921">
        <ele>110.69</ele>
        <time>2012-01-06T14:18:34Z</time>
      </trkpt>
      <trkpt lat="48.82039" lon="2.04945">
        <ele>111.17</ele>
        <time>2012-01-06T14:18:48Z</time>
      </trkpt>
      <trkpt lat="48.8203" lon="2.0497">
        <ele>110.69</ele>
        <time>2012-01-06T14:19:02Z</time>
      </trkpt>
      <trkpt lat="48.8202" lon="2.04992">
        <ele>110.21</ele>
        <time>2012-01-06T14:19:16Z</time>
      </trkpt>
      <trkpt lat="48.82017" lon="2.04998">
        <ele>111.17</ele>
        <time>2012-01-06T14:19:29Z</time>
      </trkpt>
      <trkpt lat="48.8201" lon="2.05016">
        <ele>111.17</ele>
        <time>2012-01-06T14:19:42Z</time>
      </trkpt>
      <trkpt lat="48.82" lon="2.05042">
        <ele>111.65</ele>
        <time>2012-01-06T14:19:57Z</time>
      </trkpt>
      <trkpt lat="48.81993" lon="2.05058">
        <ele>111.17</ele>
        <time>2012-01-06T14:20:07Z</time>
      </trkpt>
      <trkpt lat="48.81984" lon="2.05084">
        <ele>110.69</ele>
        <time>2012-01-06T14:20:22Z</time>
      </trkpt>
      <trkpt lat="48.81981" lon="2.05094">
        <ele>110.69</ele>
        <time>2012-01-06T14:20:27Z</time>
      </trkpt>
      <trkpt lat="48.81968" lon="2.05125">
        <ele>110.21</ele>
        <time>2012-01-06T14:20:45Z</time>
      </trkpt>
      <trkpt lat="48.81958" lon="2.05153">
        <ele>111.17</ele>
        <time>2012-01-06T14:21:01Z</time>
      </trkpt>
      <trkpt lat="48.81947" lon="2.05181">
        <ele>110.69</ele>
        <time>2012-01-06T14:21:16Z</time>
      </trkpt>
      <trkpt lat="48.81938" lon="2.05206">
        <ele>109.25</ele>
        <time>2012-01-06T14:21:30Z</time>
      </trkpt>
      <trkpt lat="48.81929" lon="2.0523">
        <ele>107.81</ele>
        <time>2012-01-06T14:21:43Z</time>
      </trkpt>
      <trkpt lat="48.8192" lon="2.05252">
        <ele>108.29</ele>
        <time>2012-01-06T14:21:56Z</time>
      </trkpt>
      <trkpt lat="48.81909" lon="2.05281">
        <ele>106.36</ele>
        <time>2012-01-06T14:22:12Z</time>
      </trkpt>
      <trkpt lat="48.81901" lon="2.05303">
        <ele>106.36</ele>
        <time>2012-01-06T14:22:24Z</time>
      </trkpt>
      <trkpt lat="48.81891" lon="2.05329">
        <ele>106.84</ele>
        <time>2012-01-06T14:22:39Z</time>
      </trkpt>
      <trkpt lat="48.81881" lon="2.05354">
        <ele>107.81</ele>
        <time>2012-01-06T14:22:53Z</time>
      </trkpt>
      <trkpt lat="48.81873" lon="2.05376">
        <ele>107.32</ele>
        <time>2012-01-06T14:23:05Z</time>
      </trkpt>
      <trkpt lat="48.8187" lon="2.05384">
        <ele>108.29</ele>
        <time>2012-01-06T14:23:11Z</time>
      </trkpt>
      <trkpt lat="48.81866" lon="2.05388">
        <ele>108.29</ele>
        <time>2012-01-06T14:23:15Z</time>
      </trkpt>
      <trkpt lat="48.81858" lon="2.05414">
        <ele>107.32</ele>
        <time>2012-01-06T14:23:30Z</time>
      </trkpt>
      <trkpt lat="48.81849" lon="2.05439">
        <ele>107.32</ele>
        <time>2012-01-06T14:23:44Z</time>
      </trkpt>
      <trkpt lat="48.81841" lon="2.05463">
        <ele>107.32</ele>
        <time>2012-01-06T14:23:58Z</time>
      </trkpt>
      <trkpt lat="48.81832" lon="2.05487">
        <ele>107.32</ele>
        <time>2012-01-06T14:24:11Z</time>
      </trkpt>
      <trkpt lat="48.81831" lon="2.05491">
        <ele>107.32</ele>
        <time>2012-01-06T14:24:14Z</time>
      </trkpt>
      <trkpt lat="48.81822" lon="2.0551">
        <ele>106.84</ele>
        <time>2012-01-06T14:24:25Z</time>
      </trkpt>
      <trkpt lat="48.81818" lon="2.05519">
        <ele>106.84</ele>
        <time>2012-01-06T14:24:30Z</time>
      </trkpt>
      <trkpt lat="48.81804" lon="2.0554">
        <ele>106.36</ele>
        <time>2012-01-06T14:24:44Z</time>
      </trkpt>
      <trkpt lat="48.8179" lon="2.05561">
        <ele>107.81</ele>
        <time>2012-01-06T14:24:59Z</time>
      </trkpt>
      <trkpt lat="48.81776" lon="2.05583">
        <ele>107.81</ele>
        <time>2012-01-06T14:25:14Z</time>
      </trkpt>
      <trkpt lat="48.81775" lon="2.05587">
        <ele>107.81</ele>
        <time>2012-01-06T14:25:17Z</time>
      </trkpt>
      <trkpt lat="48.81781" lon="2.05611">
        <ele>107.32</ele>
        <time>2012-01-06T14:25:31Z</time>
      </trkpt>
      <trkpt lat="48.81794" lon="2.05631">
        <ele>106.36</ele>
        <time>2012-01-06T14:25:46Z</time>
      </trkpt>
      <trkpt lat="48.81806" lon="2.05651">
        <ele>103.48</ele>
        <time>2012-01-06T14:26:00Z</time>
      </trkpt>
      <trkpt lat="48.8182" lon="2.05672">
        <ele>102.52</ele>
        <time>2012-01-06T14:26:15Z</time>
      </trkpt>
      <trkpt lat="48.81833" lon="2.05691">
        <ele>102.04</ele>
        <time>2012-01-06T14:26:29Z</time>
      </trkpt>
      <trkpt lat="48.81843" lon="2.0571">
        <ele>102.04</ele>
        <time>2012-01-06T14:26:43Z</time>
      </trkpt>
      <trkpt lat="48.81857" lon="2.05731">
        <ele>102.04</ele>
        <time>2012-01-06T14:26:58Z</time>
      </trkpt>
      <trkpt lat="48.81869" lon="2.05751">
        <ele>103</ele>
        <time>2012-01-06T14:27:12Z</time>
      </trkpt>
      <trkpt lat="48.81882" lon="2.0577">
        <ele>103</ele>
        <time>2012-01-06T14:27:26Z</time>
      </trkpt>
      <trkpt lat="48.81892" lon="2.05786">
        <ele>102.04</ele>
        <time>2012-01-06T14:27:37Z</time>
      </trkpt>
      <trkpt lat="48.81895" lon="2.05792">
        <ele>102.04</ele>
        <time>2012-01-06T14:27:41Z</time>
      </trkpt>
      <trkpt lat="48.8191" lon="2.05815">
        <ele>101.08</ele>
        <time>2012-01-06T14:27:57Z</time>
      </trkpt>
      <trkpt lat="48.81925" lon="2.05838">
        <ele>100.6</ele>
        <time>2012-01-06T14:28:13Z</time>
      </trkpt>
      <trkpt lat="48.8194" lon="2.05861">
        <ele>101.08</ele>
        <time>2012-01-06T14:28:29Z</time>
      </trkpt>
      <trkpt lat="48.81955" lon="2.05885">
        <ele>100.6</ele>
        <time>2012-01-06T14:28:45Z</time>
      </trkpt>
      <trkpt lat="48.8197" lon="2.05907">
        <ele>101.08</ele>
        <time>2012-01-06T14:29:01Z</time>
      </trkpt>
      <trkpt lat="48.81974" lon="2.05915">
        <ele>101.08</ele>
        <time>2012-01-06T14:29:06Z</time>
      </trkpt>
      <trkpt lat="48.81989" lon="2.05938">
        <ele>100.11</ele>
        <time>2012-01-06T14:29:22Z</time>
      </trkpt>
      <trkpt lat="48.82002" lon="2.0596">
        <ele>101.56</ele>
        <time>2012-01-06T14:29:37Z</time>
      </trkpt>
      <trkpt lat="48.82015" lon="2.0598">
        <ele>102.04</ele>
        <time>2012-01-06T14:29:51Z</time>
      </trkpt>
      <trkpt lat="48.82027" lon="2.06001">
        <ele>101.56</ele>
        <time>2012-01-06T14:30:06Z</time>
      </trkpt>
      <trkpt lat="48.82031" lon="2.06009">
        <ele>102.04</ele>
        <time>2012-01-06T14:30:12Z</time>
      </trkpt>
      <trkpt lat="48.82031" lon="2.06019">
        <ele>101.56</ele>
        <time>2012-01-06T14:30:17Z</time>
      </trkpt>
      <trkpt lat="48.82022" lon="2.06052">
        <ele>103</ele>
        <time>2012-01-06T14:30:33Z</time>
      </trkpt>
      <trkpt lat="48.82013" lon="2.06084">
        <ele>100.6</ele>
        <time>2012-01-06T14:30:49Z</time>
      </trkpt>
      <trkpt lat="48.82005" lon="2.06114">
        <ele>102.04</ele>
        <time>2012-01-06T14:31:05Z</time>
      </trkpt>
      <trkpt lat="48.81996" lon="2.06148">
        <ele>102.52</ele>
        <time>2012-01-06T14:31:22Z</time>
      </trkpt>
      <trkpt lat="48.81988" lon="2.06175">
        <ele>102.52</ele>
        <time>2012-01-06T14:31:36Z</time>
      </trkpt>
      <trkpt lat="48.8198" lon="2.06208">
        <ele>102.04</ele>
        <time>2012-01-06T14:31:53Z</time>
      </trkpt>
      <trkpt lat="48.81973" lon="2.06237">
        <ele>102.52</ele>
        <time>2012-01-06T14:32:08Z</time>
      </trkpt>
      <trkpt lat="48.81965" lon="2.06274">
        <ele>102.04</ele>
        <time>2012-01-06T14:32:27Z</time>
      </trkpt>
      <trkpt lat="48.81958" lon="2.06307">
        <ele>100.6</ele>
        <time>2012-01-06T14:32:43Z</time>
      </trkpt>
      <trkpt lat="48.81953" lon="2.06338">
        <ele>99.63</ele>
        <time>2012-01-06T14:32:58Z</time>
      </trkpt>
      <trkpt lat="48.81944" lon="2.0637">
        <ele>100.6</ele>
        <time>2012-01-06T14:33:15Z</time>
      </trkpt>
      <trkpt lat="48.81936" lon="2.06394">
        <ele>100.6</ele>
        <time>2012-01-06T14:33:29Z</time>
      </trkpt>
      <trkpt lat="48.81932" lon="2.06414">
        <ele>102.04</ele>
        <time>2012-01-06T14:33:40Z</time>
      </trkpt>
      <trkpt lat="48.81929" lon="2.06426">
        <ele>101.08</ele>
        <time>2012-01-06T14:33:48Z</time>
      </trkpt>
      <trkpt lat="48.81928" lon="2.06429">
        <ele>100.11</ele>
        <time>2012-01-06T14:33:50Z</time>
      </trkpt>
      <trkpt lat="48.81927" lon="2.06434">
        <ele>99.63</ele>
        <time>2012-01-06T14:33:53Z</time>
      </trkpt>
      <trkpt lat="48.81923" lon="2.06459">
        <ele>97.71</ele>
        <time>2012-01-06T14:34:05Z</time>
      </trkpt>
      <trkpt lat="48.8192" lon="2.06474">
        <ele>98.19</ele>
        <time>2012-01-06T14:34:13Z</time>
      </trkpt>
      <trkpt lat="48.81912" lon="2.06498">
        <ele>98.19</ele>
        <time>2012-01-06T14:34:27Z</time>
      </trkpt>
      <trkpt lat="48.81905" lon="2.06521">
        <ele>98.19</ele>
        <time>2012-01-06T14:34:41Z</time>
      </trkpt>
      <trkpt lat="48.81902" lon="2.06526">
        <ele>98.67</ele>
        <time>2012-01-06T14:34:45Z</time>
      </trkpt>
      <trkpt lat="48.81896" lon="2.06544">
        <ele>98.19</ele>
        <time>2012-01-06T14:34:57Z</time>
      </trkpt>
      <trkpt lat="48.81895" lon="2.06548">
        <ele>97.71</ele>
        <time>2012-01-06T14:34:59Z</time>
      </trkpt>
      <trkpt lat="48.81886" lon="2.06579">
        <ele>97.71</ele>
        <time>2012-01-06T14:35:15Z</time>
      </trkpt>
      <trkpt lat="48.8188" lon="2.06608">
        <ele>97.23</ele>
        <time>2012-01-06T14:35:31Z</time>
      </trkpt>
      <trkpt lat="48.81879" lon="2.06609">
        <ele>97.71</ele>
        <time>2012-01-06T14:35:40Z</time>
      </trkpt>
      <trkpt lat="48.8187" lon="2.06664">
        <ele>96.75</ele>
        <time>2012-01-06T14:35:56Z</time>
      </trkpt>
      <trkpt lat="48.8186" lon="2.0668">
        <ele>100.11</ele>
        <time>2012-01-06T14:36:09Z</time>
      </trkpt>
      <trkpt lat="48.81854" lon="2.06705">
        <ele>101.56</ele>
        <time>2012-01-06T14:36:24Z</time>
      </trkpt>
      <trkpt lat="48.8185" lon="2.06729">
        <ele>101.56</ele>
        <time>2012-01-06T14:36:37Z</time>
      </trkpt>
      <trkpt lat="48.81842" lon="2.06757">
        <ele>101.56</ele>
        <time>2012-01-06T14:36:53Z</time>
      </trkpt>
      <trkpt lat="48.81835" lon="2.06782">
        <ele>102.04</ele>
        <time>2012-01-06T14:37:07Z</time>
      </trkpt>
      <trkpt lat="48.81829" lon="2.06806">
        <ele>103</ele>
        <time>2012-01-06T14:37:21Z</time>
      </trkpt>
      <trkpt lat="48.81821" lon="2.06829">
        <ele>102.52</ele>
        <time>2012-01-06T14:37:35Z</time>
      </trkpt>
      <trkpt lat="48.81812" lon="2.06853">
        <ele>103.48</ele>
        <time>2012-01-06T14:37:49Z</time>
      </trkpt>
      <trkpt lat="48.81805" lon="2.06877">
        <ele>103.96</ele>
        <time>2012-01-06T14:38:03Z</time>
      </trkpt>
      <trkpt lat="48.81798" lon="2.06901">
        <ele>104.92</ele>
        <time>2012-01-06T14:38:17Z</time>
      </trkpt>
      <trkpt lat="48.8179" lon="2.0693">
        <ele>105.88</ele>
        <time>2012-01-06T14:38:33Z</time>
      </trkpt>
      <trkpt lat="48.81784" lon="2.06959">
        <ele>106.36</ele>
        <time>2012-01-06T14:38:49Z</time>
      </trkpt>
      <trkpt lat="48.81783" lon="2.06963">
        <ele>106.36</ele>
        <time>2012-01-06T14:38:52Z</time>
      </trkpt>
      <trkpt lat="48.81777" lon="2.06981">
        <ele>106.84</ele>
        <time>2012-01-06T14:39:06Z</time>
      </trkpt>
      <trkpt lat="48.8177" lon="2.07004">
        <ele>106.84</ele>
        <time>2012-01-06T14:39:19Z</time>
      </trkpt>
      <trkpt lat="48.81766" lon="2.07017">
        <ele>106.84</ele>
        <time>2012-01-06T14:39:33Z</time>
      </trkpt>
      <trkpt lat="48.81759" lon="2.07044">
        <ele>107.81</ele>
        <time>2012-01-06T14:39:48Z</time>
      </trkpt>
      <trkpt lat="48.81753" lon="2.0707">
        <ele>106.84</ele>
        <time>2012-01-06T14:40:02Z</time>
      </trkpt>
      <trkpt lat="48.81746" lon="2.07094">
        <ele>106.84</ele>
        <time>2012-01-06T14:40:16Z</time>
      </trkpt>
      <trkpt lat="48.81739" lon="2.0712">
        <ele>106.36</ele>
        <time>2012-01-06T14:40:30Z</time>
      </trkpt>
      <trkpt lat="48.81737" lon="2.07129">
        <ele>106.84</ele>
        <time>2012-01-06T14:40:35Z</time>
      </trkpt>
      <trkpt lat="48.81734" lon="2.07138">
        <ele>106.84</ele>
        <time>2012-01-06T14:40:41Z</time>
      </trkpt>
      <trkpt lat="48.81731" lon="2.07144">
        <ele>107.32</ele>
        <time>2012-01-06T14:40:45Z</time>
      </trkpt>
      <trkpt lat="48.81724" lon="2.07176">
        <ele>107.32</ele>
        <time>2012-01-06T14:41:02Z</time>
      </trkpt>
      <trkpt lat="48.81715" lon="2.07205">
        <ele>106.84</ele>
        <time>2012-01-06T14:41:17Z</time>
      </trkpt>
      <trkpt lat="48.81713" lon="2.07214">
        <ele>106.36</ele>
        <time>2012-01-06T14:41:22Z</time>
      </trkpt>
      <trkpt lat="48.81706" lon="2.07242">
        <ele>106.36</ele>
        <time>2012-01-06T14:41:37Z</time>
      </trkpt>
      <trkpt lat="48.81701" lon="2.07268">
        <ele>105.88</ele>
        <time>2012-01-06T14:41:50Z</time>
      </trkpt>
      <trkpt lat="48.81695" lon="2.07288">
        <ele>105.88</ele>
        <time>2012-01-06T14:42:01Z</time>
      </trkpt>
      <trkpt lat="48.81689" lon="2.07307">
        <ele>106.36</ele>
        <time>2012-01-06T14:42:12Z</time>
      </trkpt>
      <trkpt lat="48.81683" lon="2.07334">
        <ele>106.36</ele>
        <time>2012-01-06T14:42:26Z</time>
      </trkpt>
      <trkpt lat="48.81676" lon="2.07358">
        <ele>106.36</ele>
        <time>2012-01-06T14:42:39Z</time>
      </trkpt>
      <trkpt lat="48.81668" lon="2.07386">
        <ele>105.88</ele>
        <time>2012-01-06T14:42:54Z</time>
      </trkpt>
      <trkpt lat="48.81661" lon="2.07412">
        <ele>105.4</ele>
        <time>2012-01-06T14:43:08Z</time>
      </trkpt>
      <trkpt lat="48.81656" lon="2.07432">
        <ele>105.4</ele>
        <time>2012-01-06T14:43:19Z</time>
      </trkpt>
      <trkpt lat="48.81656" lon="2.07435">
        <ele>104.92</ele>
        <time>2012-01-06T14:43:21Z</time>
      </trkpt>
      <trkpt lat="48.81651" lon="2.07455">
        <ele>105.4</ele>
        <time>2012-01-06T14:43:32Z</time>
      </trkpt>
      <trkpt lat="48.81644" lon="2.07486">
        <ele>105.88</ele>
        <time>2012-01-06T14:43:49Z</time>
      </trkpt>
      <trkpt lat="48.8164" lon="2.07514">
        <ele>107.81</ele>
        <time>2012-01-06T14:44:04Z</time>
      </trkpt>
      <trkpt lat="48.81637" lon="2.07522">
        <ele>107.81</ele>
        <time>2012-01-06T14:44:17Z</time>
      </trkpt>
      <trkpt lat="48.8163" lon="2.07555">
        <ele>107.32</ele>
        <time>2012-01-06T14:44:34Z</time>
      </trkpt>
      <trkpt lat="48.81621" lon="2.07589">
        <ele>106.84</ele>
        <time>2012-01-06T14:44:52Z</time>
      </trkpt>
      <trkpt lat="48.81612" lon="2.07615">
        <ele>105.88</ele>
        <time>2012-01-06T14:45:07Z</time>
      </trkpt>
      <trkpt lat="48.81606" lon="2.0764">
        <ele>105.88</ele>
        <time>2012-01-06T14:45:21Z</time>
      </trkpt>
      <trkpt lat="48.81599" lon="2.07665">
        <ele>106.36</ele>
        <time>2012-01-06T14:45:35Z</time>
      </trkpt>
      <trkpt lat="48.81591" lon="2.07692">
        <ele>105.4</ele>
        <time>2012-01-06T14:45:50Z</time>
      </trkpt>
      <trkpt lat="48.81585" lon="2.07719">
        <ele>105.88</ele>
        <time>2012-01-06T14:46:05Z</time>
      </trkpt>
      <trkpt lat="48.81577" lon="2.07748">
        <ele>106.84</ele>
        <time>2012-01-06T14:46:21Z</time>
      </trkpt>
      <trkpt lat="48.81569" lon="2.07777">
        <ele>106.36</ele>
        <time>2012-01-06T14:46:37Z</time>
      </trkpt>
      <trkpt lat="48.81563" lon="2.07794">
        <ele>106.36</ele>
        <time>2012-01-06T14:46:52Z</time>
      </trkpt>
      <trkpt lat="48.81563" lon="2.07794">
        <ele>106.84</ele>
        <time>2012-01-06T14:47:09Z</time>
      </trkpt>
      <trkpt lat="48.81563" lon="2.07793">
        <ele>106.84</ele>
        <time>2012-01-06T14:47:19Z</time>
      </trkpt>
      <trkpt lat="48.81563" lon="2.07793">
        <ele>106.84</ele>
        <time>2012-01-06T14:47:45Z</time>
      </trkpt>
      <trkpt lat="48.81562" lon="2.07793">
        <ele>106.84</ele>
        <time>2012-01-06T14:48:16Z</time>
      </trkpt>
      <trkpt lat="48.81553" lon="2.07815">
        <ele>108.29</ele>
        <time>2012-01-06T14:48:30Z</time>
      </trkpt>
      <trkpt lat="48.81543" lon="2.07824">
        <ele>108.29</ele>
        <time>2012-01-06T14:48:39Z</time>
      </trkpt>
      <trkpt lat="48.8154" lon="2.07831">
        <ele>108.77</ele>
        <time>2012-01-06T14:48:43Z</time>
      </trkpt>
      <trkpt lat="48.81538" lon="2.07862">
        <ele>107.32</ele>
        <time>2012-01-06T14:49:00Z</time>
      </trkpt>
      <trkpt lat="48.81544" lon="2.07875">
        <ele>105.88</ele>
        <time>2012-01-06T14:49:08Z</time>
      </trkpt>
      <trkpt lat="48.81548" lon="2.07885">
        <ele>105.88</ele>
        <time>2012-01-06T14:49:21Z</time>
      </trkpt>
      <trkpt lat="48.81549" lon="2.07888">
        <ele>106.36</ele>
        <time>2012-01-06T14:49:34Z</time>
      </trkpt>
      <trkpt lat="48.81569" lon="2.07905">
        <ele>107.32</ele>
        <time>2012-01-06T14:49:50Z</time>
      </trkpt>
      <trkpt lat="48.81588" lon="2.07913">
        <ele>108.29</ele>
        <time>2012-01-06T14:50:06Z</time>
      </trkpt>
      <trkpt lat="48.81599" lon="2.0792">
        <ele>109.25</ele>
        <time>2012-01-06T14:50:20Z</time>
      </trkpt>
      <trkpt lat="48.81599" lon="2.07921">
        <ele>109.25</ele>
        <time>2012-01-06T14:50:25Z</time>
      </trkpt>
      <trkpt lat="48.81598" lon="2.07928">
        <ele>108.77</ele>
        <time>2012-01-06T14:50:29Z</time>
      </trkpt>
      <trkpt lat="48.81591" lon="2.07956">
        <ele>107.81</ele>
        <time>2012-01-06T14:50:45Z</time>
      </trkpt>
      <trkpt lat="48.81586" lon="2.07979">
        <ele>107.81</ele>
        <time>2012-01-06T14:50:59Z</time>
      </trkpt>
      <trkpt lat="48.81581" lon="2.08">
        <ele>107.32</ele>
        <time>2012-01-06T14:51:10Z</time>
      </trkpt>
      <trkpt lat="48.81579" lon="2.08011">
        <ele>106.84</ele>
        <time>2012-01-06T14:51:16Z</time>
      </trkpt>
      <trkpt lat="48.81577" lon="2.08017">
        <ele>106.84</ele>
        <time>2012-01-06T14:51:19Z</time>
      </trkpt>
      <trkpt lat="48.81571" lon="2.08043">
        <ele>105.88</ele>
        <time>2012-01-06T14:51:33Z</time>
      </trkpt>
      <trkpt lat="48.81564" lon="2.08072">
        <ele>104.92</ele>
        <time>2012-01-06T14:51:48Z</time>
      </trkpt>
      <trkpt lat="48.81555" lon="2.08107">
        <ele>103.48</ele>
        <time>2012-01-06T14:52:06Z</time>
      </trkpt>
      <trkpt lat="48.81546" lon="2.08137">
        <ele>102.04</ele>
        <time>2012-01-06T14:52:22Z</time>
      </trkpt>
      <trkpt lat="48.81537" lon="2.08174">
        <ele>103.96</ele>
        <time>2012-01-06T14:52:41Z</time>
      </trkpt>
      <trkpt lat="48.81529" lon="2.08204">
        <ele>103.96</ele>
        <time>2012-01-06T14:52:57Z</time>
      </trkpt>
      <trkpt lat="48.8152" lon="2.08239">
        <ele>103</ele>
        <time>2012-01-06T14:53:14Z</time>
      </trkpt>
      <trkpt lat="48.81512" lon="2.0827">
        <ele>102.52</ele>
        <time>2012-01-06T14:53:31Z</time>
      </trkpt>
      <trkpt lat="48.81516" lon="2.08298">
        <ele>102.04</ele>
        <time>2012-01-06T14:53:46Z</time>
      </trkpt>
      <trkpt lat="48.8153" lon="2.0833">
        <ele>100.6</ele>
        <time>2012-01-06T14:54:04Z</time>
      </trkpt>
      <trkpt lat="48.81536" lon="2.08361">
        <ele>100.6</ele>
        <time>2012-01-06T14:54:19Z</time>
      </trkpt>
      <trkpt lat="48.81538" lon="2.08398">
        <ele>99.15</ele>
        <time>2012-01-06T14:54:37Z</time>
      </trkpt>
      <trkpt lat="48.81536" lon="2.08431">
        <ele>97.71</ele>
        <time>2012-01-06T14:54:52Z</time>
      </trkpt>
      <trkpt lat="48.81532" lon="2.08447">
        <ele>97.71</ele>
        <time>2012-01-06T14:55:00Z</time>
      </trkpt>
      <trkpt lat="48.81527" lon="2.08469">
        <ele>98.67</ele>
        <time>2012-01-06T14:55:11Z</time>
      </trkpt>
      <trkpt lat="48.81515" lon="2.08496">
        <ele>100.11</ele>
        <time>2012-01-06T14:55:27Z</time>
      </trkpt>
      <trkpt lat="48.81499" lon="2.08522">
        <ele>100.6</ele>
        <time>2012-01-06T14:55:44Z</time>
      </trkpt>
      <trkpt lat="48.8148" lon="2.08541">
        <ele>101.08</ele>
        <time>2012-01-06T14:56:01Z</time>
      </trkpt>
      <trkpt lat="48.81463" lon="2.08556">
        <ele>102.04</ele>
        <time>2012-01-06T14:56:16Z</time>
      </trkpt>
      <trkpt lat="48.81453" lon="2.08581">
        <ele>102.52</ele>
        <time>2012-01-06T14:56:30Z</time>
      </trkpt>
      <trkpt lat="48.81446" lon="2.08608">
        <ele>102.52</ele>
        <time>2012-01-06T14:56:44Z</time>
      </trkpt>
      <trkpt lat="48.81439" lon="2.08635">
        <ele>101.56</ele>
        <time>2012-01-06T14:56:59Z</time>
      </trkpt>
      <trkpt lat="48.8143" lon="2.08667">
        <ele>101.08</ele>
        <time>2012-01-06T14:57:16Z</time>
      </trkpt>
      <trkpt lat="48.81426" lon="2.08684">
        <ele>100.6</ele>
        <time>2012-01-06T14:57:25Z</time>
      </trkpt>
      <trkpt lat="48.81419" lon="2.08705">
        <ele>100.6</ele>
        <time>2012-01-06T14:57:36Z</time>
      </trkpt>
      <trkpt lat="48.81413" lon="2.08728">
        <ele>101.08</ele>
        <time>2012-01-06T14:57:48Z</time>
      </trkpt>
      <trkpt lat="48.81407" lon="2.08756">
        <ele>101.08</ele>
        <time>2012-01-06T14:58:03Z</time>
      </trkpt>
      <trkpt lat="48.81406" lon="2.08765">
        <ele>101.08</ele>
        <time>2012-01-06T14:58:08Z</time>
      </trkpt>
      <trkpt lat="48.81404" lon="2.08773">
        <ele>100.6</ele>
        <time>2012-01-06T14:58:12Z</time>
      </trkpt>
      <trkpt lat="48.81399" lon="2.08799">
        <ele>99.63</ele>
        <time>2012-01-06T14:58:25Z</time>
      </trkpt>
      <trkpt lat="48.81397" lon="2.08821">
        <ele>100.6</ele>
        <time>2012-01-06T14:58:38Z</time>
      </trkpt>
      <trkpt lat="48.81395" lon="2.08829">
        <ele>100.11</ele>
        <time>2012-01-06T14:59:03Z</time>
      </trkpt>
      <trkpt lat="48.8139" lon="2.08847">
        <ele>100.11</ele>
        <time>2012-01-06T14:59:12Z</time>
      </trkpt>
      <trkpt lat="48.81386" lon="2.08864">
        <ele>99.63</ele>
        <time>2012-01-06T14:59:21Z</time>
      </trkpt>
      <trkpt lat="48.81378" lon="2.08894">
        <ele>100.6</ele>
        <time>2012-01-06T14:59:37Z</time>
      </trkpt>
      <trkpt lat="48.81375" lon="2.08906">
        <ele>101.08</ele>
        <time>2012-01-06T14:59:44Z</time>
      </trkpt>
      <trkpt lat="48.81376" lon="2.08914">
        <ele>101.08</ele>
        <time>2012-01-06T14:59:48Z</time>
      </trkpt>
      <trkpt lat="48.81372" lon="2.08948">
        <ele>100.11</ele>
        <time>2012-01-06T15:00:05Z</time>
      </trkpt>
      <trkpt lat="48.81373" lon="2.08958">
        <ele>100.6</ele>
        <time>2012-01-06T15:00:10Z</time>
      </trkpt>
      <trkpt lat="48.81375" lon="2.0896">
        <ele>100.6</ele>
        <time>2012-01-06T15:00:13Z</time>
      </trkpt>
      <trkpt lat="48.81385" lon="2.08966">
        <ele>100.6</ele>
        <time>2012-01-06T15:00:21Z</time>
      </trkpt>
      <trkpt lat="48.81381" lon="2.08988">
        <ele>102.04</ele>
        <time>2012-01-06T15:00:33Z</time>
      </trkpt>
      <trkpt lat="48.81375" lon="2.09018">
        <ele>103.48</ele>
        <time>2012-01-06T15:00:49Z</time>
      </trkpt>
      <trkpt lat="48.81368" lon="2.09044">
        <ele>103.96</ele>
        <time>2012-01-06T15:01:03Z</time>
      </trkpt>
      <trkpt lat="48.81361" lon="2.09069">
        <ele>103</ele>
        <time>2012-01-06T15:01:16Z</time>
      </trkpt>
      <trkpt lat="48.8136" lon="2.09075">
        <ele>102.52</ele>
        <time>2012-01-06T15:01:19Z</time>
      </trkpt>
      <trkpt lat="48.81356" lon="2.09084">
        <ele>102.04</ele>
        <time>2012-01-06T15:01:24Z</time>
      </trkpt>
      <trkpt lat="48.81348" lon="2.09115">
        <ele>102.04</ele>
        <time>2012-01-06T15:01:40Z</time>
      </trkpt>
      <trkpt lat="48.81338" lon="2.0915">
        <ele>102.52</ele>
        <time>2012-01-06T15:01:59Z</time>
      </trkpt>
      <trkpt lat="48.81331" lon="2.09179">
        <ele>101.56</ele>
        <time>2012-01-06T15:02:14Z</time>
      </trkpt>
      <trkpt lat="48.81324" lon="2.09207">
        <ele>102.04</ele>
        <time>2012-01-06T15:02:29Z</time>
      </trkpt>
      <trkpt lat="48.81321" lon="2.09215">
        <ele>102.04</ele>
        <time>2012-01-06T15:02:34Z</time>
      </trkpt>
      <trkpt lat="48.81307" lon="2.09225">
        <ele>101.08</ele>
        <time>2012-01-06T15:02:47Z</time>
      </trkpt>
      <trkpt lat="48.81299" lon="2.09231">
        <ele>99.63</ele>
        <time>2012-01-06T15:02:54Z</time>
      </trkpt>
      <trkpt lat="48.81284" lon="2.09253">
        <ele>100.11</ele>
        <time>2012-01-06T15:03:10Z</time>
      </trkpt>
      <trkpt lat="48.81275" lon="2.09265">
        <ele>100.6</ele>
        <time>2012-01-06T15:03:19Z</time>
      </trkpt>
      <trkpt lat="48.81259" lon="2.09286">
        <ele>101.08</ele>
        <time>2012-01-06T15:03:35Z</time>
      </trkpt>
      <trkpt lat="48.81252" lon="2.09297">
        <ele>101.08</ele>
        <time>2012-01-06T15:03:43Z</time>
      </trkpt>
      <trkpt lat="48.81253" lon="2.09319">
        <ele>101.56</ele>
        <time>2012-01-06T15:03:56Z</time>
      </trkpt>
      <trkpt lat="48.8125" lon="2.09339">
        <ele>102.04</ele>
        <time>2012-01-06T15:04:06Z</time>
      </trkpt>
      <trkpt lat="48.81245" lon="2.0936">
        <ele>100.6</ele>
        <time>2012-01-06T15:04:18Z</time>
      </trkpt>
      <trkpt lat="48.8124" lon="2.09385">
        <ele>101.08</ele>
        <time>2012-01-06T15:04:32Z</time>
      </trkpt>
      <trkpt lat="48.81232" lon="2.09412">
        <ele>101.56</ele>
        <time>2012-01-06T15:04:46Z</time>
      </trkpt>
      <trkpt lat="48.81226" lon="2.09434">
        <ele>101.56</ele>
        <time>2012-01-06T15:04:58Z</time>
      </trkpt>
      <trkpt lat="48.81218" lon="2.09458">
        <ele>101.56</ele>
        <time>2012-01-06T15:05:10Z</time>
      </trkpt>
      <trkpt lat="48.81212" lon="2.09483">
        <ele>103</ele>
        <time>2012-01-06T15:05:24Z</time>
      </trkpt>
      <trkpt lat="48.81205" lon="2.09512">
        <ele>102.52</ele>
        <time>2012-01-06T15:05:40Z</time>
      </trkpt>
      <trkpt lat="48.81199" lon="2.09532">
        <ele>102.52</ele>
        <time>2012-01-06T15:05:50Z</time>
      </trkpt>
      <trkpt lat="48.81192" lon="2.09562">
        <ele>101.56</ele>
        <time>2012-01-06T15:06:06Z</time>
      </trkpt>
      <trkpt lat="48.8119" lon="2.09568">
        <ele>101.56</ele>
        <time>2012-01-06T15:06:10Z</time>
      </trkpt>
      <trkpt lat="48.81182" lon="2.09598">
        <ele>100.11</ele>
        <time>2012-01-06T15:06:27Z</time>
      </trkpt>
      <trkpt lat="48.81175" lon="2.09626">
        <ele>100.6</ele>
        <time>2012-01-06T15:06:40Z</time>
      </trkpt>
      <trkpt lat="48.8117" lon="2.09651">
        <ele>100.6</ele>
        <time>2012-01-06T15:06:54Z</time>
      </trkpt>
      <trkpt lat="48.81162" lon="2.09679">
        <ele>102.52</ele>
        <time>2012-01-06T15:07:09Z</time>
      </trkpt>
      <trkpt lat="48.81153" lon="2.09709">
        <ele>102.04</ele>
        <time>2012-01-06T15:07:24Z</time>
      </trkpt>
      <trkpt lat="48.81148" lon="2.09733">
        <ele>101.56</ele>
        <time>2012-01-06T15:07:37Z</time>
      </trkpt>
      <trkpt lat="48.81146" lon="2.09739">
        <ele>101.56</ele>
        <time>2012-01-06T15:07:41Z</time>
      </trkpt>
      <trkpt lat="48.81138" lon="2.09766">
        <ele>104.92</ele>
        <time>2012-01-06T15:07:55Z</time>
      </trkpt>
      <trkpt lat="48.81134" lon="2.09778">
        <ele>105.4</ele>
        <time>2012-01-06T15:08:02Z</time>
      </trkpt>
      <trkpt lat="48.81133" lon="2.09787">
        <ele>105.4</ele>
        <time>2012-01-06T15:08:07Z</time>
      </trkpt>
      <trkpt lat="48.81129" lon="2.09801">
        <ele>107.81</ele>
        <time>2012-01-06T15:08:23Z</time>
      </trkpt>
      <trkpt lat="48.81129" lon="2.09801">
        <ele>107.81</ele>
        <time>2012-01-06T15:08:49Z</time>
      </trkpt>
      <trkpt lat="48.81129" lon="2.09803">
        <ele>107.32</ele>
        <time>2012-01-06T15:09:13Z</time>
      </trkpt>
      <trkpt lat="48.8112" lon="2.09835">
        <ele>106.36</ele>
        <time>2012-01-06T15:09:27Z</time>
      </trkpt>
      <trkpt lat="48.81112" lon="2.09859">
        <ele>104.44</ele>
        <time>2012-01-06T15:09:39Z</time>
      </trkpt>
      <trkpt lat="48.81107" lon="2.0989">
        <ele>102.04</ele>
        <time>2012-01-06T15:09:53Z</time>
      </trkpt>
      <trkpt lat="48.81101" lon="2.0992">
        <ele>100.6</ele>
        <time>2012-01-06T15:10:09Z</time>
      </trkpt>
      <trkpt lat="48.81092" lon="2.09949">
        <ele>100.11</ele>
        <time>2012-01-06T15:10:23Z</time>
      </trkpt>
      <trkpt lat="48.81092" lon="2.09952">
        <ele>100.11</ele>
        <time>2012-01-06T15:10:25Z</time>
      </trkpt>
      <trkpt lat="48.81095" lon="2.09958">
        <ele>100.11</ele>
        <time>2012-01-06T15:10:29Z</time>
      </trkpt>
      <trkpt lat="48.81107" lon="2.09987">
        <ele>99.63</ele>
        <time>2012-01-06T15:10:46Z</time>
      </trkpt>
      <trkpt lat="48.81107" lon="2.1">
        <ele>98.67</ele>
        <time>2012-01-06T15:10:52Z</time>
      </trkpt>
      <trkpt lat="48.81109" lon="2.10006">
        <ele>98.19</ele>
        <time>2012-01-06T15:10:56Z</time>
      </trkpt>
      <trkpt lat="48.81132" lon="2.10021">
        <ele>98.67</ele>
        <time>2012-01-06T15:11:14Z</time>
      </trkpt>
      <trkpt lat="48.81155" lon="2.10035">
        <ele>97.71</ele>
        <time>2012-01-06T15:11:32Z</time>
      </trkpt>
      <trkpt lat="48.81176" lon="2.10047">
        <ele>98.19</ele>
        <time>2012-01-06T15:11:49Z</time>
      </trkpt>
      <trkpt lat="48.81197" lon="2.10061">
        <ele>98.19</ele>
        <time>2012-01-06T15:12:05Z</time>
      </trkpt>
      <trkpt lat="48.81215" lon="2.10072">
        <ele>97.71</ele>
        <time>2012-01-06T15:12:20Z</time>
      </trkpt>
      <trkpt lat="48.81237" lon="2.10084">
        <ele>98.19</ele>
        <time>2012-01-06T15:12:37Z</time>
      </trkpt>
      <trkpt lat="48.81255" lon="2.10096">
        <ele>97.71</ele>
        <time>2012-01-06T15:12:52Z</time>
      </trkpt>
      <trkpt lat="48.81274" lon="2.10107">
        <ele>97.71</ele>
        <time>2012-01-06T15:13:07Z</time>
      </trkpt>
      <trkpt lat="48.81294" lon="2.10119">
        <ele>97.71</ele>
        <time>2012-01-06T15:13:23Z</time>
      </trkpt>
      <trkpt lat="48.81314" lon="2.10131">
        <ele>98.67</ele>
        <time>2012-01-06T15:13:39Z</time>
      </trkpt>
      <trkpt lat="48.81334" lon="2.10143">
        <ele>97.71</ele>
        <time>2012-01-06T15:13:55Z</time>
      </trkpt>
      <trkpt lat="48.81355" lon="2.10155">
        <ele>98.67</ele>
        <time>2012-01-06T15:14:11Z</time>
      </trkpt>
      <trkpt lat="48.81373" lon="2.10167">
        <ele>98.67</ele>
        <time>2012-01-06T15:14:26Z</time>
      </trkpt>
      <trkpt lat="48.81394" lon="2.10179">
        <ele>99.15</ele>
        <time>2012-01-06T15:14:42Z</time>
      </trkpt>
      <trkpt lat="48.81403" lon="2.10186">
        <ele>99.15</ele>
        <time>2012-01-06T15:14:50Z</time>
      </trkpt>
      <trkpt lat="48.81404" lon="2.10195">
        <ele>98.67</ele>
        <time>2012-01-06T15:14:56Z</time>
      </trkpt>
      <trkpt lat="48.81416" lon="2.10213">
        <ele>97.71</ele>
        <time>2012-01-06T15:15:10Z</time>
      </trkpt>
      <trkpt lat="48.81419" lon="2.10242">
        <ele>98.67</ele>
        <time>2012-01-06T15:15:25Z</time>
      </trkpt>
      <trkpt lat="48.81406" lon="2.1027">
        <ele>99.15</ele>
        <time>2012-01-06T15:15:42Z</time>
      </trkpt>
      <trkpt lat="48.81389" lon="2.10279">
        <ele>98.67</ele>
        <time>2012-01-06T15:15:56Z</time>
      </trkpt>
      <trkpt lat="48.81372" lon="2.10282">
        <ele>98.19</ele>
        <time>2012-01-06T15:16:10Z</time>
      </trkpt>
      <trkpt lat="48.81353" lon="2.10272">
        <ele>97.71</ele>
        <time>2012-01-06T15:16:25Z</time>
      </trkpt>
      <trkpt lat="48.81335" lon="2.1026">
        <ele>98.67</ele>
        <time>2012-01-06T15:16:41Z</time>
      </trkpt>
      <trkpt lat="48.81316" lon="2.10249">
        <ele>99.63</ele>
        <time>2012-01-06T15:16:57Z</time>
      </trkpt>
      <trkpt lat="48.81299" lon="2.10239">
        <ele>99.63</ele>
        <time>2012-01-06T15:17:11Z</time>
      </trkpt>
      <trkpt lat="48.81279" lon="2.10226">
        <ele>101.08</ele>
        <time>2012-01-06T15:17:27Z</time>
      </trkpt>
      <trkpt lat="48.81259" lon="2.10215">
        <ele>100.11</ele>
        <time>2012-01-06T15:17:43Z</time>
      </trkpt>
      <trkpt lat="48.81241" lon="2.10205">
        <ele>99.63</ele>
        <time>2012-01-06T15:17:57Z</time>
      </trkpt>
      <trkpt lat="48.81223" lon="2.10193">
        <ele>100.6</ele>
        <time>2012-01-06T15:18:12Z</time>
      </trkpt>
      <trkpt lat="48.81214" lon="2.10189">
        <ele>100.6</ele>
        <time>2012-01-06T15:18:19Z</time>
      </trkpt>
      <trkpt lat="48.81196" lon="2.10177">
        <ele>100.11</ele>
        <time>2012-01-06T15:18:34Z</time>
      </trkpt>
      <trkpt lat="48.81192" lon="2.10176">
        <ele>100.11</ele>
        <time>2012-01-06T15:18:37Z</time>
      </trkpt>
      <trkpt lat="48.81176" lon="2.10166">
        <ele>101.56</ele>
        <time>2012-01-06T15:18:50Z</time>
      </trkpt>
      <trkpt lat="48.81161" lon="2.10157">
        <ele>101.56</ele>
        <time>2012-01-06T15:19:05Z</time>
      </trkpt>
      <trkpt lat="48.81155" lon="2.10153">
        <ele>100.6</ele>
        <time>2012-01-06T15:19:10Z</time>
      </trkpt>
      <trkpt lat="48.81134" lon="2.10141">
        <ele>99.63</ele>
        <time>2012-01-06T15:19:27Z</time>
      </trkpt>
      <trkpt lat="48.81117" lon="2.10129">
        <ele>100.6</ele>
        <time>2012-01-06T15:19:42Z</time>
      </trkpt>
      <trkpt lat="48.81096" lon="2.10124">
        <ele>100.6</ele>
        <time>2012-01-06T15:19:59Z</time>
      </trkpt>
      <trkpt lat="48.81085" lon="2.10139">
        <ele>100.6</ele>
        <time>2012-01-06T15:20:13Z</time>
      </trkpt>
      <trkpt lat="48.81072" lon="2.10157">
        <ele>101.08</ele>
        <time>2012-01-06T15:20:27Z</time>
      </trkpt>
      <trkpt lat="48.8106" lon="2.10177">
        <ele>101.56</ele>
        <time>2012-01-06T15:20:42Z</time>
      </trkpt>
      <trkpt lat="48.81052" lon="2.102">
        <ele>102.52</ele>
        <time>2012-01-06T15:20:57Z</time>
      </trkpt>
      <trkpt lat="48.8105" lon="2.10211">
        <ele>102.52</ele>
        <time>2012-01-06T15:21:10Z</time>
      </trkpt>
      <trkpt lat="48.8104" lon="2.10225">
        <ele>101.56</ele>
        <time>2012-01-06T15:21:27Z</time>
      </trkpt>
      <trkpt lat="48.81036" lon="2.10234">
        <ele>100.6</ele>
        <time>2012-01-06T15:21:41Z</time>
      </trkpt>
      <trkpt lat="48.81037" lon="2.10235">
        <ele>100.6</ele>
        <time>2012-01-06T15:22:02Z</time>
      </trkpt>
      <trkpt lat="48.81036" lon="2.10238">
        <ele>101.08</ele>
        <time>2012-01-06T15:22:19Z</time>
      </trkpt>
      <trkpt lat="48.81036" lon="2.10244">
        <ele>101.56</ele>
        <time>2012-01-06T15:22:37Z</time>
      </trkpt>
      <trkpt lat="48.81036" lon="2.10244">
        <ele>101.56</ele>
        <time>2012-01-06T15:22:38Z</time>
      </trkpt>
      <trkpt lat="48.8103" lon="2.10239">
        <ele>101.08</ele>
        <time>2012-01-06T15:22:45Z</time>
      </trkpt>
      <trkpt lat="48.81017" lon="2.10238">
        <ele>103.96</ele>
        <time>2012-01-06T15:22:58Z</time>
      </trkpt>
      <trkpt lat="48.81004" lon="2.10246">
        <ele>103</ele>
        <time>2012-01-06T15:23:10Z</time>
      </trkpt>
      <trkpt lat="48.81003" lon="2.10259">
        <ele>101.56</ele>
        <time>2012-01-06T15:23:18Z</time>
      </trkpt>
      <trkpt lat="48.81004" lon="2.10268">
        <ele>102.04</ele>
        <time>2012-01-06T15:23:23Z</time>
      </trkpt>
      <trkpt lat="48.80995" lon="2.10297">
        <ele>102.52</ele>
        <time>2012-01-06T15:23:40Z</time>
      </trkpt>
      <trkpt lat="48.8099" lon="2.10321">
        <ele>103</ele>
        <time>2012-01-06T15:23:54Z</time>
      </trkpt>
      <trkpt lat="48.80982" lon="2.10348">
        <ele>103.48</ele>
        <time>2012-01-06T15:24:08Z</time>
      </trkpt>
      <trkpt lat="48.80977" lon="2.10377">
        <ele>102.04</ele>
        <time>2012-01-06T15:24:25Z</time>
      </trkpt>
      <trkpt lat="48.8097" lon="2.10402">
        <ele>101.08</ele>
        <time>2012-01-06T15:24:38Z</time>
      </trkpt>
      <trkpt lat="48.80963" lon="2.10429">
        <ele>101.56</ele>
        <time>2012-01-06T15:24:52Z</time>
      </trkpt>
      <trkpt lat="48.80956" lon="2.10458">
        <ele>100.6</ele>
        <time>2012-01-06T15:25:07Z</time>
      </trkpt>
      <trkpt lat="48.80948" lon="2.10485">
        <ele>100.6</ele>
        <time>2012-01-06T15:25:21Z</time>
      </trkpt>
      <trkpt lat="48.80947" lon="2.10494">
        <ele>100.6</ele>
        <time>2012-01-06T15:25:26Z</time>
      </trkpt>
      <trkpt lat="48.80943" lon="2.10508">
        <ele>101.56</ele>
        <time>2012-01-06T15:25:34Z</time>
      </trkpt>
      <trkpt lat="48.80933" lon="2.10535">
        <ele>104.44</ele>
        <time>2012-01-06T15:25:49Z</time>
      </trkpt>
      <trkpt lat="48.8093" lon="2.10547">
        <ele>104.44</ele>
        <time>2012-01-06T15:25:56Z</time>
      </trkpt>
      <trkpt lat="48.80923" lon="2.10572">
        <ele>103.96</ele>
        <time>2012-01-06T15:26:10Z</time>
      </trkpt>
      <trkpt lat="48.80917" lon="2.10598">
        <ele>103</ele>
        <time>2012-01-06T15:26:24Z</time>
      </trkpt>
      <trkpt lat="48.80912" lon="2.10626">
        <ele>100.6</ele>
        <time>2012-01-06T15:26:40Z</time>
      </trkpt>
      <trkpt lat="48.80905" lon="2.10652">
        <ele>101.08</ele>
        <time>2012-01-06T15:26:54Z</time>
      </trkpt>
      <trkpt lat="48.80899" lon="2.10678">
        <ele>101.08</ele>
        <time>2012-01-06T15:27:08Z</time>
      </trkpt>
      <trkpt lat="48.80892" lon="2.10704">
        <ele>101.08</ele>
        <time>2012-01-06T15:27:22Z</time>
      </trkpt>
      <trkpt lat="48.8089" lon="2.10715">
        <ele>102.04</ele>
        <time>2012-01-06T15:27:28Z</time>
      </trkpt>
      <trkpt lat="48.80887" lon="2.10724">
        <ele>102.04</ele>
        <time>2012-01-06T15:27:32Z</time>
      </trkpt>
      <trkpt lat="48.80881" lon="2.10752">
        <ele>100.6</ele>
        <time>2012-01-06T15:27:46Z</time>
      </trkpt>
      <trkpt lat="48.80875" lon="2.10779">
        <ele>100.11</ele>
        <time>2012-01-06T15:28:01Z</time>
      </trkpt>
      <trkpt lat="48.80869" lon="2.10804">
        <ele>100.11</ele>
        <time>2012-01-06T15:28:14Z</time>
      </trkpt>
      <trkpt lat="48.80866" lon="2.1083">
        <ele>100.6</ele>
        <time>2012-01-06T15:28:28Z</time>
      </trkpt>
      <trkpt lat="48.80857" lon="2.10856">
        <ele>102.04</ele>
        <time>2012-01-06T15:28:42Z</time>
      </trkpt>
      <trkpt lat="48.80854" lon="2.10886">
        <ele>101.56</ele>
        <time>2012-01-06T15:28:57Z</time>
      </trkpt>
      <trkpt lat="48.80853" lon="2.1091">
        <ele>100.6</ele>
        <time>2012-01-06T15:29:10Z</time>
      </trkpt>
      <trkpt lat="48.80852" lon="2.1092">
        <ele>98.67</ele>
        <time>2012-01-06T15:29:16Z</time>
      </trkpt>
      <trkpt lat="48.80844" lon="2.1095">
        <ele>99.15</ele>
        <time>2012-01-06T15:29:33Z</time>
      </trkpt>
      <trkpt lat="48.8084" lon="2.10967">
        <ele>98.67</ele>
        <time>2012-01-06T15:29:42Z</time>
      </trkpt>
      <trkpt lat="48.80839" lon="2.10974">
        <ele>98.67</ele>
        <time>2012-01-06T15:29:46Z</time>
      </trkpt>
      <trkpt lat="48.80833" lon="2.11004">
        <ele>99.63</ele>
        <time>2012-01-06T15:30:03Z</time>
      </trkpt>
      <trkpt lat="48.80833" lon="2.11006">
        <ele>100.11</ele>
        <time>2012-01-06T15:30:18Z</time>
      </trkpt>
      <trkpt lat="48.80833" lon="2.11007">
        <ele>100.11</ele>
        <time>2012-01-06T15:30:52Z</time>
      </trkpt>
      <trkpt lat="48.80833" lon="2.11007">
        <ele>100.11</ele>
        <time>2012-01-06T15:31:27Z</time>
      </trkpt>
      <trkpt lat="48.80833" lon="2.11007">
        <ele>100.11</ele>
        <time>2012-01-06T15:31:58Z</time>
      </trkpt>
      <trkpt lat="48.80833" lon="2.11007">
        <ele>100.11</ele>
        <time>2012-01-06T15:32:20Z</time>
      </trkpt>
      <trkpt lat="48.80833" lon="2.11007">
        <ele>100.11</ele>
        <time>2012-01-06T15:32:46Z</time>
      </trkpt>
      <trkpt lat="48.80833" lon="2.11007">
        <ele>100.11</ele>
        <time>2012-01-06T15:33:19Z</time>
      </trkpt>
      <trkpt lat="48.80833" lon="2.11007">
        <ele>100.11</ele>
        <time>2012-01-06T15:33:54Z</time>
      </trkpt>
      <trkpt lat="48.80833" lon="2.11007">
        <ele>100.11</ele>
        <time>2012-01-06T15:34:32Z</time>
      </trkpt>
      <trkpt lat="48.80825" lon="2.11034">
        <ele>99.63</ele>
        <time>2012-01-06T15:34:49Z</time>
      </trkpt>
      <trkpt lat="48.80825" lon="2.11037">
        <ele>99.63</ele>
        <time>2012-01-06T15:34:51Z</time>
      </trkpt>
      <trkpt lat="48.80817" lon="2.11066">
        <ele>99.63</ele>
        <time>2012-01-06T15:35:08Z</time>
      </trkpt>
      <trkpt lat="48.8081" lon="2.11091">
        <ele>100.11</ele>
        <time>2012-01-06T15:35:23Z</time>
      </trkpt>
      <trkpt lat="48.80808" lon="2.11094">
        <ele>100.11</ele>
        <time>2012-01-06T15:35:25Z</time>
      </trkpt>
      <trkpt lat="48.80786" lon="2.11115">
        <ele>101.56</ele>
        <time>2012-01-06T15:35:43Z</time>
      </trkpt>
      <trkpt lat="48.80769" lon="2.11131">
        <ele>103.48</ele>
        <time>2012-01-06T15:35:58Z</time>
      </trkpt>
      <trkpt lat="48.80751" lon="2.11143">
        <ele>103.48</ele>
        <time>2012-01-06T15:36:14Z</time>
      </trkpt>
      <trkpt lat="48.80737" lon="2.11156">
        <ele>104.44</ele>
        <time>2012-01-06T15:36:28Z</time>
      </trkpt>
      <trkpt lat="48.80723" lon="2.11171">
        <ele>105.4</ele>
        <time>2012-01-06T15:36:42Z</time>
      </trkpt>
      <trkpt lat="48.80715" lon="2.11197">
        <ele>105.4</ele>
        <time>2012-01-06T15:36:57Z</time>
      </trkpt>
      <trkpt lat="48.80715" lon="2.11204">
        <ele>105.4</ele>
        <time>2012-01-06T15:37:01Z</time>
      </trkpt>
      <trkpt lat="48.80712" lon="2.11221">
        <ele>105.88</ele>
        <time>2012-01-06T15:37:12Z</time>
      </trkpt>
      <trkpt lat="48.80712" lon="2.11224">
        <ele>105.88</ele>
        <time>2012-01-06T15:37:21Z</time>
      </trkpt>
      <trkpt lat="48.80704" lon="2.11252">
        <ele>103.96</ele>
        <time>2012-01-06T15:37:38Z</time>
      </trkpt>
      <trkpt lat="48.80703" lon="2.11255">
        <ele>103.96</ele>
        <time>2012-01-06T15:37:40Z</time>
      </trkpt>
      <trkpt lat="48.807" lon="2.11264">
        <ele>104.44</ele>
        <time>2012-01-06T15:37:46Z</time>
      </trkpt>
      <trkpt lat="48.80692" lon="2.11293">
        <ele>106.36</ele>
        <time>2012-01-06T15:38:04Z</time>
      </trkpt>
      <trkpt lat="48.80685" lon="2.11323">
        <ele>106.36</ele>
        <time>2012-01-06T15:38:23Z</time>
      </trkpt>
      <trkpt lat="48.80678" lon="2.11351">
        <ele>106.36</ele>
        <time>2012-01-06T15:38:40Z</time>
      </trkpt>
      <trkpt lat="48.80667" lon="2.1138">
        <ele>108.29</ele>
        <time>2012-01-06T15:38:56Z</time>
      </trkpt>
      <trkpt lat="48.8066" lon="2.11407">
        <ele>108.77</ele>
        <time>2012-01-06T15:39:12Z</time>
      </trkpt>
      <trkpt lat="48.80656" lon="2.11422">
        <ele>108.77</ele>
        <time>2012-01-06T15:39:21Z</time>
      </trkpt>
      <trkpt lat="48.80653" lon="2.11432">
        <ele>108.77</ele>
        <time>2012-01-06T15:39:27Z</time>
      </trkpt>
      <trkpt lat="48.80649" lon="2.11448">
        <ele>109.25</ele>
        <time>2012-01-06T15:39:42Z</time>
      </trkpt>
      <trkpt lat="48.80644" lon="2.11471">
        <ele>109.25</ele>
        <time>2012-01-06T15:39:55Z</time>
      </trkpt>
      <trkpt lat="48.80637" lon="2.11496">
        <ele>109.73</ele>
        <time>2012-01-06T15:40:09Z</time>
      </trkpt>
      <trkpt lat="48.8063" lon="2.11519">
        <ele>111.65</ele>
        <time>2012-01-06T15:40:23Z</time>
      </trkpt>
      <trkpt lat="48.80624" lon="2.11542">
        <ele>112.13</ele>
        <time>2012-01-06T15:40:37Z</time>
      </trkpt>
      <trkpt lat="48.80618" lon="2.11567">
        <ele>113.09</ele>
        <time>2012-01-06T15:40:52Z</time>
      </trkpt>
      <trkpt lat="48.80611" lon="2.11588">
        <ele>114.05</ele>
        <time>2012-01-06T15:41:05Z</time>
      </trkpt>
      <trkpt lat="48.80609" lon="2.11592">
        <ele>114.53</ele>
        <time>2012-01-06T15:41:08Z</time>
      </trkpt>
      <trkpt lat="48.80603" lon="2.116">
        <ele>115.5</ele>
        <time>2012-01-06T15:41:15Z</time>
      </trkpt>
      <trkpt lat="48.80592" lon="2.1162">
        <ele>116.94</ele>
        <time>2012-01-06T15:41:30Z</time>
      </trkpt>
      <trkpt lat="48.80585" lon="2.11641">
        <ele>118.38</ele>
        <time>2012-01-06T15:41:45Z</time>
      </trkpt>
      <trkpt lat="48.80578" lon="2.1166">
        <ele>118.86</ele>
        <time>2012-01-06T15:41:58Z</time>
      </trkpt>
      <trkpt lat="48.80572" lon="2.11678">
        <ele>119.34</ele>
        <time>2012-01-06T15:42:11Z</time>
      </trkpt>
      <trkpt lat="48.80567" lon="2.11686">
        <ele>119.82</ele>
        <time>2012-01-06T15:42:18Z</time>
      </trkpt>
      <trkpt lat="48.80559" lon="2.11709">
        <ele>120.78</ele>
        <time>2012-01-06T15:42:34Z</time>
      </trkpt>
      <trkpt lat="48.80554" lon="2.11724">
        <ele>121.74</ele>
        <time>2012-01-06T15:42:47Z</time>
      </trkpt>
      <trkpt lat="48.80547" lon="2.11737">
        <ele>122.71</ele>
        <time>2012-01-06T15:43:00Z</time>
      </trkpt>
      <trkpt lat="48.80545" lon="2.11741">
        <ele>122.71</ele>
        <time>2012-01-06T15:43:16Z</time>
      </trkpt>
      <trkpt lat="48.80545" lon="2.11741">
        <ele>122.71</ele>
        <time>2012-01-06T15:43:41Z</time>
      </trkpt>
      <trkpt lat="48.80545" lon="2.11741">
        <ele>122.71</ele>
        <time>2012-01-06T15:44:15Z</time>
      </trkpt>
      <trkpt lat="48.80545" lon="2.11741">
        <ele>122.71</ele>
        <time>2012-01-06T15:44:50Z</time>
      </trkpt>
      <trkpt lat="48.80545" lon="2.11741">
        <ele>122.71</ele>
        <time>2012-01-06T15:44:56Z</time>
      </trkpt>
      <trkpt lat="48.80546" lon="2.11744">
        <ele>123.19</ele>
        <time>2012-01-06T15:45:07Z</time>
      </trkpt>
      <trkpt lat="48.80545" lon="2.1174">
        <ele>122.71</ele>
        <time>2012-01-06T15:45:21Z</time>
      </trkpt>
      <trkpt lat="48.80544" lon="2.11742">
        <ele>122.71</ele>
        <time>2012-01-06T15:45:46Z</time>
      </trkpt>
      <trkpt lat="48.80532" lon="2.11747">
        <ele>123.67</ele>
        <time>2012-01-06T15:45:58Z</time>
      </trkpt>
      <trkpt lat="48.80531" lon="2.11749">
        <ele>123.67</ele>
        <time>2012-01-06T15:46:00Z</time>
      </trkpt>
      <trkpt lat="48.80518" lon="2.11756">
        <ele>124.63</ele>
        <time>2012-01-06T15:46:12Z</time>
      </trkpt>
      <trkpt lat="48.80514" lon="2.11759">
        <ele>125.11</ele>
        <time>2012-01-06T15:46:18Z</time>
      </trkpt>
      <trkpt lat="48.80512" lon="2.11765">
        <ele>127.03</ele>
        <time>2012-01-06T15:46:27Z</time>
      </trkpt>
      <trkpt lat="48.80512" lon="2.11769">
        <ele>127.99</ele>
        <time>2012-01-06T15:46:31Z</time>
      </trkpt>
      <trkpt lat="48.80516" lon="2.11784">
        <ele>127.51</ele>
        <time>2012-01-06T15:46:42Z</time>
      </trkpt>
      <trkpt lat="48.80517" lon="2.11806">
        <ele>127.51</ele>
        <time>2012-01-06T15:46:57Z</time>
      </trkpt>
      <trkpt lat="48.80519" lon="2.11821">
        <ele>127.51</ele>
        <time>2012-01-06T15:47:10Z</time>
      </trkpt>
      <trkpt lat="48.80516" lon="2.11833">
        <ele>129.43</ele>
        <time>2012-01-06T15:47:24Z</time>
      </trkpt>
      <trkpt lat="48.80515" lon="2.11835">
        <ele>129.92</ele>
        <time>2012-01-06T15:47:27Z</time>
      </trkpt>
      <trkpt lat="48.8051" lon="2.11837">
        <ele>130.88</ele>
        <time>2012-01-06T15:47:32Z</time>
      </trkpt>
      <trkpt lat="48.80505" lon="2.11839">
        <ele>131.36</ele>
        <time>2012-01-06T15:47:38Z</time>
      </trkpt>
      <trkpt lat="48.80501" lon="2.11839">
        <ele>131.36</ele>
        <time>2012-01-06T15:47:42Z</time>
      </trkpt>
      <trkpt lat="48.80486" lon="2.1184">
        <ele>133.76</ele>
        <time>2012-01-06T15:47:57Z</time>
      </trkpt>
      <trkpt lat="48.80474" lon="2.11849">
        <ele>134.72</ele>
        <time>2012-01-06T15:48:11Z</time>
      </trkpt>
      <trkpt lat="48.80471" lon="2.11851">
        <ele>134.72</ele>
        <time>2012-01-06T15:48:14Z</time>
      </trkpt>
      <trkpt lat="48.80462" lon="2.11857">
        <ele>134.24</ele>
        <time>2012-01-06T15:48:24Z</time>
      </trkpt>
      <trkpt lat="48.80446" lon="2.11856">
        <ele>134.24</ele>
        <time>2012-01-06T15:48:38Z</time>
      </trkpt>
      <trkpt lat="48.80432" lon="2.11852">
        <ele>135.2</ele>
        <time>2012-01-06T15:48:52Z</time>
      </trkpt>
      <trkpt lat="48.80417" lon="2.11845">
        <ele>134.72</ele>
        <time>2012-01-06T15:49:06Z</time>
      </trkpt>
      <trkpt lat="48.80404" lon="2.11836">
        <ele>134.72</ele>
        <time>2012-01-06T15:49:19Z</time>
      </trkpt>
      <trkpt lat="48.8039" lon="2.11828">
        <ele>134.72</ele>
        <time>2012-01-06T15:49:32Z</time>
      </trkpt>
      <trkpt lat="48.80388" lon="2.11827">
        <ele>134.72</ele>
        <time>2012-01-06T15:49:34Z</time>
      </trkpt>
      <trkpt lat="48.80386" lon="2.11826">
        <ele>134.72</ele>
        <time>2012-01-06T15:49:36Z</time>
      </trkpt>
      <trkpt lat="48.8037" lon="2.11817">
        <ele>134.72</ele>
        <time>2012-01-06T15:49:51Z</time>
      </trkpt>
      <trkpt lat="48.80361" lon="2.1181">
        <ele>133.76</ele>
        <time>2012-01-06T15:50:04Z</time>
      </trkpt>
      <trkpt lat="48.80357" lon="2.11808">
        <ele>133.76</ele>
        <time>2012-01-06T15:50:18Z</time>
      </trkpt>
      <trkpt lat="48.80353" lon="2.11813">
        <ele>133.28</ele>
        <time>2012-01-06T15:50:25Z</time>
      </trkpt>
      <trkpt lat="48.80337" lon="2.11826">
        <ele>133.28</ele>
        <time>2012-01-06T15:50:40Z</time>
      </trkpt>
      <trkpt lat="48.80329" lon="2.11838">
        <ele>133.76</ele>
        <time>2012-01-06T15:50:52Z</time>
      </trkpt>
      <trkpt lat="48.80323" lon="2.11862">
        <ele>132.8</ele>
        <time>2012-01-06T15:51:07Z</time>
      </trkpt>
      <trkpt lat="48.80317" lon="2.11885">
        <ele>131.84</ele>
        <time>2012-01-06T15:51:21Z</time>
      </trkpt>
      <trkpt lat="48.80316" lon="2.11888">
        <ele>131.84</ele>
        <time>2012-01-06T15:51:23Z</time>
      </trkpt>
      <trkpt lat="48.80312" lon="2.11911">
        <ele>130.88</ele>
        <time>2012-01-06T15:51:37Z</time>
      </trkpt>
      <trkpt lat="48.80304" lon="2.11933">
        <ele>131.36</ele>
        <time>2012-01-06T15:51:51Z</time>
      </trkpt>
      <trkpt lat="48.80303" lon="2.11938">
        <ele>131.36</ele>
        <time>2012-01-06T15:51:54Z</time>
      </trkpt>
      <trkpt lat="48.80298" lon="2.11961">
        <ele>130.4</ele>
        <time>2012-01-06T15:52:08Z</time>
      </trkpt>
      <trkpt lat="48.80289" lon="2.11981">
        <ele>130.4</ele>
        <time>2012-01-06T15:52:23Z</time>
      </trkpt>
      <trkpt lat="48.80288" lon="2.11982">
        <ele>130.4</ele>
        <time>2012-01-06T15:52:24Z</time>
      </trkpt>
      <trkpt lat="48.80274" lon="2.1199">
        <ele>128.95</ele>
        <time>2012-01-06T15:52:38Z</time>
      </trkpt>
      <trkpt lat="48.80272" lon="2.11991">
        <ele>129.43</ele>
        <time>2012-01-06T15:52:40Z</time>
      </trkpt>
      <trkpt lat="48.80259" lon="2.11985">
        <ele>130.4</ele>
        <time>2012-01-06T15:52:53Z</time>
      </trkpt>
      <trkpt lat="48.80246" lon="2.11975">
        <ele>130.88</ele>
        <time>2012-01-06T15:53:07Z</time>
      </trkpt>
      <trkpt lat="48.8023" lon="2.1197">
        <ele>131.36</ele>
        <time>2012-01-06T15:53:21Z</time>
      </trkpt>
      <trkpt lat="48.80224" lon="2.11967">
        <ele>131.84</ele>
        <time>2012-01-06T15:53:35Z</time>
      </trkpt>
      <trkpt lat="48.80224" lon="2.11968">
        <ele>132.32</ele>
        <time>2012-01-06T15:53:44Z</time>
      </trkpt>
      <trkpt lat="48.80226" lon="2.11972">
        <ele>132.8</ele>
        <time>2012-01-06T15:53:58Z</time>
      </trkpt>
      <trkpt lat="48.80241" lon="2.11985">
        <ele>131.84</ele>
        <time>2012-01-06T15:54:13Z</time>
      </trkpt>
      <trkpt lat="48.80257" lon="2.11997">
        <ele>131.84</ele>
        <time>2012-01-06T15:54:27Z</time>
      </trkpt>
      <trkpt lat="48.80272" lon="2.12007">
        <ele>130.88</ele>
        <time>2012-01-06T15:54:40Z</time>
      </trkpt>
      <trkpt lat="48.80284" lon="2.12017">
        <ele>130.88</ele>
        <time>2012-01-06T15:54:54Z</time>
      </trkpt>
      <trkpt lat="48.80297" lon="2.12025">
        <ele>131.84</ele>
        <time>2012-01-06T15:55:07Z</time>
      </trkpt>
      <trkpt lat="48.80314" lon="2.12038">
        <ele>131.84</ele>
        <time>2012-01-06T15:55:24Z</time>
      </trkpt>
      <trkpt lat="48.80325" lon="2.12044">
        <ele>131.36</ele>
        <time>2012-01-06T15:55:34Z</time>
      </trkpt>
      <trkpt lat="48.80345" lon="2.12055">
        <ele>133.76</ele>
        <time>2012-01-06T15:55:51Z</time>
      </trkpt>
      <trkpt lat="48.80359" lon="2.12063">
        <ele>135.68</ele>
        <time>2012-01-06T15:56:05Z</time>
      </trkpt>
      <trkpt lat="48.80374" lon="2.12069">
        <ele>139.05</ele>
        <time>2012-01-06T15:56:20Z</time>
      </trkpt>
      <trkpt lat="48.80383" lon="2.12074">
        <ele>139.53</ele>
        <time>2012-01-06T15:56:30Z</time>
      </trkpt>
      <trkpt lat="48.80398" lon="2.12081">
        <ele>140.49</ele>
        <time>2012-01-06T15:56:46Z</time>
      </trkpt>
      <trkpt lat="48.80405" lon="2.1209">
        <ele>141.93</ele>
        <time>2012-01-06T15:56:58Z</time>
      </trkpt>
      <trkpt lat="48.80405" lon="2.12107">
        <ele>136.16</ele>
        <time>2012-01-06T15:57:13Z</time>
      </trkpt>
      <trkpt lat="48.80405" lon="2.12126">
        <ele>133.28</ele>
        <time>2012-01-06T15:57:30Z</time>
      </trkpt>
      <trkpt lat="48.80405" lon="2.12126">
        <ele>132.8</ele>
        <time>2012-01-06T15:57:58Z</time>
      </trkpt>
      <trkpt lat="48.80405" lon="2.12131">
        <ele>131.84</ele>
        <time>2012-01-06T15:58:01Z</time>
      </trkpt>
      <trkpt lat="48.80399" lon="2.12158">
        <ele>133.28</ele>
        <time>2012-01-06T15:58:15Z</time>
      </trkpt>
      <trkpt lat="48.80391" lon="2.12175">
        <ele>135.68</ele>
        <time>2012-01-06T15:58:28Z</time>
      </trkpt>
      <trkpt lat="48.80385" lon="2.12181">
        <ele>135.2</ele>
        <time>2012-01-06T15:58:41Z</time>
      </trkpt>
      <trkpt lat="48.80385" lon="2.12181">
        <ele>135.2</ele>
        <time>2012-01-06T15:59:18Z</time>
      </trkpt>
      <trkpt lat="48.80382" lon="2.12192">
        <ele>137.13</ele>
        <time>2012-01-06T15:59:32Z</time>
      </trkpt>
      <trkpt lat="48.8038" lon="2.122">
        <ele>139.05</ele>
        <time>2012-01-06T15:59:37Z</time>
      </trkpt>
      <trkpt lat="48.8038" lon="2.12218">
        <ele>141.45</ele>
        <time>2012-01-06T15:59:47Z</time>
      </trkpt>
      <trkpt lat="48.80381" lon="2.12227">
        <ele>140.97</ele>
        <time>2012-01-06T15:59:53Z</time>
      </trkpt>
      <trkpt lat="48.80382" lon="2.12231">
        <ele>140.97</ele>
        <time>2012-01-06T15:59:55Z</time>
      </trkpt>
      <trkpt lat="48.80385" lon="2.12245">
        <ele>139.53</ele>
        <time>2012-01-06T16:00:04Z</time>
      </trkpt>
      <trkpt lat="48.80384" lon="2.12264">
        <ele>137.61</ele>
        <time>2012-01-06T16:00:17Z</time>
      </trkpt>
      <trkpt lat="48.80384" lon="2.12266">
        <ele>137.61</ele>
        <time>2012-01-06T16:00:18Z</time>
      </trkpt>
      <trkpt lat="48.80382" lon="2.12277">
        <ele>136.64</ele>
        <time>2012-01-06T16:00:27Z</time>
      </trkpt>
      <trkpt lat="48.80381" lon="2.1228">
        <ele>136.64</ele>
        <time>2012-01-06T16:00:29Z</time>
      </trkpt>
      <trkpt lat="48.80382" lon="2.123">
        <ele>135.2</ele>
        <time>2012-01-06T16:00:42Z</time>
      </trkpt>
      <trkpt lat="48.80382" lon="2.12312">
        <ele>134.72</ele>
        <time>2012-01-06T16:00:49Z</time>
      </trkpt>
      <trkpt lat="48.80382" lon="2.12318">
        <ele>134.24</ele>
        <time>2012-01-06T16:00:53Z</time>
      </trkpt>
      <trkpt lat="48.8038" lon="2.12334">
        <ele>134.24</ele>
        <time>2012-01-06T16:01:03Z</time>
      </trkpt>
      <trkpt lat="48.80379" lon="2.12336">
        <ele>133.76</ele>
        <time>2012-01-06T16:01:05Z</time>
      </trkpt>
      <trkpt lat="48.80378" lon="2.1235">
        <ele>131.84</ele>
        <time>2012-01-06T16:01:15Z</time>
      </trkpt>
      <trkpt lat="48.80375" lon="2.12372">
        <ele>130.88</ele>
        <time>2012-01-06T16:01:29Z</time>
      </trkpt>
      <trkpt lat="48.80374" lon="2.12388">
        <ele>130.4</ele>
        <time>2012-01-06T16:01:39Z</time>
      </trkpt>
      <trkpt lat="48.80373" lon="2.12405">
        <ele>129.43</ele>
        <time>2012-01-06T16:01:50Z</time>
      </trkpt>
      <trkpt lat="48.80372" lon="2.12416">
        <ele>128.47</ele>
        <time>2012-01-06T16:01:58Z</time>
      </trkpt>
      <trkpt lat="48.80367" lon="2.12433">
        <ele>127.51</ele>
        <time>2012-01-06T16:02:12Z</time>
      </trkpt>
      <trkpt lat="48.8036" lon="2.12447">
        <ele>127.51</ele>
        <time>2012-01-06T16:02:24Z</time>
      </trkpt>
      <trkpt lat="48.80359" lon="2.12449">
        <ele>127.99</ele>
        <time>2012-01-06T16:02:25Z</time>
      </trkpt>
      <trkpt lat="48.80359" lon="2.1246">
        <ele>127.99</ele>
        <time>2012-01-06T16:02:33Z</time>
      </trkpt>
      <trkpt lat="48.80359" lon="2.12462">
        <ele>127.99</ele>
        <time>2012-01-06T16:02:35Z</time>
      </trkpt>
      <trkpt lat="48.80355" lon="2.12478">
        <ele>127.99</ele>
        <time>2012-01-06T16:02:46Z</time>
      </trkpt>
      <trkpt lat="48.8035" lon="2.12496">
        <ele>127.99</ele>
        <time>2012-01-06T16:02:59Z</time>
      </trkpt>
      <trkpt lat="48.80339" lon="2.1251">
        <ele>127.99</ele>
        <time>2012-01-06T16:03:13Z</time>
      </trkpt>
      <trkpt lat="48.80333" lon="2.12526">
        <ele>127.51</ele>
        <time>2012-01-06T16:03:25Z</time>
      </trkpt>
      <trkpt lat="48.80324" lon="2.12539">
        <ele>127.03</ele>
        <time>2012-01-06T16:03:37Z</time>
      </trkpt>
      <trkpt lat="48.80319" lon="2.12556">
        <ele>127.03</ele>
        <time>2012-01-06T16:03:49Z</time>
      </trkpt>
      <trkpt lat="48.80313" lon="2.12573">
        <ele>127.51</ele>
        <time>2012-01-06T16:04:01Z</time>
      </trkpt>
      <trkpt lat="48.80313" lon="2.12576">
        <ele>127.51</ele>
        <time>2012-01-06T16:04:03Z</time>
      </trkpt>
      <trkpt lat="48.80311" lon="2.12584">
        <ele>127.99</ele>
        <time>2012-01-06T16:04:08Z</time>
      </trkpt>
      <trkpt lat="48.8031" lon="2.12587">
        <ele>127.51</ele>
        <time>2012-01-06T16:04:10Z</time>
      </trkpt>
      <trkpt lat="48.80305" lon="2.12604">
        <ele>126.55</ele>
        <time>2012-01-06T16:04:22Z</time>
      </trkpt>
      <trkpt lat="48.80303" lon="2.12611">
        <ele>125.11</ele>
        <time>2012-01-06T16:04:34Z</time>
      </trkpt>
      <trkpt lat="48.80303" lon="2.12611">
        <ele>125.11</ele>
        <time>2012-01-06T16:05:04Z</time>
      </trkpt>
      <trkpt lat="48.80303" lon="2.12611">
        <ele>126.07</ele>
        <time>2012-01-06T16:05:31Z</time>
      </trkpt>
      <trkpt lat="48.80301" lon="2.1262">
        <ele>126.07</ele>
        <time>2012-01-06T16:05:44Z</time>
      </trkpt>
      <trkpt lat="48.80301" lon="2.12622">
        <ele>126.07</ele>
        <time>2012-01-06T16:05:47Z</time>
      </trkpt>
      <trkpt lat="48.80296" lon="2.12641">
        <ele>126.55</ele>
        <time>2012-01-06T16:06:01Z</time>
      </trkpt>
      <trkpt lat="48.80297" lon="2.12646">
        <ele>126.07</ele>
        <time>2012-01-06T16:06:04Z</time>
      </trkpt>
      <trkpt lat="48.80291" lon="2.12664">
        <ele>123.67</ele>
        <time>2012-01-06T16:06:17Z</time>
      </trkpt>
      <trkpt lat="48.80284" lon="2.12678">
        <ele>122.71</ele>
        <time>2012-01-06T16:06:30Z</time>
      </trkpt>
      <trkpt lat="48.80281" lon="2.12686">
        <ele>122.71</ele>
        <time>2012-01-06T16:06:37Z</time>
      </trkpt>
      <trkpt lat="48.80276" lon="2.12698">
        <ele>123.19</ele>
        <time>2012-01-06T16:06:46Z</time>
      </trkpt>
      <trkpt lat="48.80269" lon="2.12716">
        <ele>122.71</ele>
        <time>2012-01-06T16:07:00Z</time>
      </trkpt>
      <trkpt lat="48.80268" lon="2.12724">
        <ele>122.71</ele>
        <time>2012-01-06T16:07:05Z</time>
      </trkpt>
      <trkpt lat="48.80266" lon="2.12728">
        <ele>122.71</ele>
        <time>2012-01-06T16:07:08Z</time>
      </trkpt>
      <trkpt lat="48.80258" lon="2.12749">
        <ele>124.15</ele>
        <time>2012-01-06T16:07:24Z</time>
      </trkpt>
      <trkpt lat="48.80255" lon="2.12765">
        <ele>124.63</ele>
        <time>2012-01-06T16:07:37Z</time>
      </trkpt>
      <trkpt lat="48.80245" lon="2.12796">
        <ele>124.15</ele>
        <time>2012-01-06T16:07:54Z</time>
      </trkpt>
      <trkpt lat="48.8024" lon="2.12813">
        <ele>122.22</ele>
        <time>2012-01-06T16:08:08Z</time>
      </trkpt>
      <trkpt lat="48.80235" lon="2.12832">
        <ele>120.78</ele>
        <time>2012-01-06T16:08:22Z</time>
      </trkpt>
      <trkpt lat="48.80233" lon="2.12838">
        <ele>119.82</ele>
        <time>2012-01-06T16:08:27Z</time>
      </trkpt>
      <trkpt lat="48.80228" lon="2.12856">
        <ele>118.38</ele>
        <time>2012-01-06T16:08:39Z</time>
      </trkpt>
      <trkpt lat="48.80223" lon="2.12876">
        <ele>118.38</ele>
        <time>2012-01-06T16:08:53Z</time>
      </trkpt>
      <trkpt lat="48.80219" lon="2.12894">
        <ele>122.22</ele>
        <time>2012-01-06T16:09:06Z</time>
      </trkpt>
      <trkpt lat="48.80213" lon="2.12915">
        <ele>123.67</ele>
        <time>2012-01-06T16:09:19Z</time>
      </trkpt>
      <trkpt lat="48.8021" lon="2.12936">
        <ele>123.67</ele>
        <time>2012-01-06T16:09:34Z</time>
      </trkpt>
      <trkpt lat="48.80213" lon="2.12946">
        <ele>124.15</ele>
        <time>2012-01-06T16:09:48Z</time>
      </trkpt>
      <trkpt lat="48.80213" lon="2.12949">
        <ele>124.63</ele>
        <time>2012-01-06T16:10:07Z</time>
      </trkpt>
      <trkpt lat="48.80211" lon="2.12964">
        <ele>125.11</ele>
        <time>2012-01-06T16:10:16Z</time>
      </trkpt>
      <trkpt lat="48.80208" lon="2.12974">
        <ele>124.63</ele>
        <time>2012-01-06T16:10:22Z</time>
      </trkpt>
      <trkpt lat="48.80201" lon="2.12994">
        <ele>124.15</ele>
        <time>2012-01-06T16:10:34Z</time>
      </trkpt>
      <trkpt lat="48.80199" lon="2.13002">
        <ele>123.67</ele>
        <time>2012-01-06T16:10:39Z</time>
      </trkpt>
      <trkpt lat="48.80193" lon="2.13014">
        <ele>124.63</ele>
        <time>2012-01-06T16:10:49Z</time>
      </trkpt>
      <trkpt lat="48.80191" lon="2.13017">
        <ele>125.11</ele>
        <time>2012-01-06T16:10:51Z</time>
      </trkpt>
      <trkpt lat="48.80191" lon="2.1302">
        <ele>125.11</ele>
        <time>2012-01-06T16:10:53Z</time>
      </trkpt>
      <trkpt lat="48.80187" lon="2.1303">
        <ele>125.11</ele>
        <time>2012-01-06T16:11:00Z</time>
      </trkpt>
      <trkpt lat="48.80179" lon="2.13051">
        <ele>125.11</ele>
        <time>2012-01-06T16:11:16Z</time>
      </trkpt>
      <trkpt lat="48.80175" lon="2.13069">
        <ele>126.07</ele>
        <time>2012-01-06T16:11:29Z</time>
      </trkpt>
      <trkpt lat="48.80175" lon="2.1307">
        <ele>126.07</ele>
        <time>2012-01-06T16:11:30Z</time>
      </trkpt>
      <trkpt lat="48.8017" lon="2.13083">
        <ele>125.11</ele>
        <time>2012-01-06T16:11:40Z</time>
      </trkpt>
      <trkpt lat="48.80165" lon="2.13099">
        <ele>125.59</ele>
        <time>2012-01-06T16:11:52Z</time>
      </trkpt>
      <trkpt lat="48.80157" lon="2.13118">
        <ele>127.03</ele>
        <time>2012-01-06T16:12:05Z</time>
      </trkpt>
      <trkpt lat="48.80151" lon="2.13135">
        <ele>127.03</ele>
        <time>2012-01-06T16:12:17Z</time>
      </trkpt>
      <trkpt lat="48.80147" lon="2.13142">
        <ele>127.03</ele>
        <time>2012-01-06T16:12:24Z</time>
      </trkpt>
      <trkpt lat="48.80144" lon="2.13147">
        <ele>127.51</ele>
        <time>2012-01-06T16:12:28Z</time>
      </trkpt>
      <trkpt lat="48.80136" lon="2.13155">
        <ele>127.03</ele>
        <time>2012-01-06T16:12:39Z</time>
      </trkpt>
      <trkpt lat="48.80131" lon="2.13161">
        <ele>126.55</ele>
        <time>2012-01-06T16:12:51Z</time>
      </trkpt>
      <trkpt lat="48.8013" lon="2.13164">
        <ele>126.55</ele>
        <time>2012-01-06T16:12:53Z</time>
      </trkpt>
      <trkpt lat="48.80116" lon="2.13171">
        <ele>125.59</ele>
        <time>2012-01-06T16:13:09Z</time>
      </trkpt>
      <trkpt lat="48.80103" lon="2.1318">
        <ele>125.59</ele>
        <time>2012-01-06T16:13:27Z</time>
      </trkpt>
      <trkpt lat="48.80083" lon="2.13196">
        <ele>126.55</ele>
        <time>2012-01-06T16:13:43Z</time>
      </trkpt>
      <trkpt lat="48.80076" lon="2.132">
        <ele>126.55</ele>
        <time>2012-01-06T16:13:56Z</time>
      </trkpt>
      <trkpt lat="48.80067" lon="2.13211">
        <ele>132.8</ele>
        <time>2012-01-06T16:14:11Z</time>
      </trkpt>
      <trkpt lat="48.80049" lon="2.13226">
        <ele>137.13</ele>
        <time>2012-01-06T16:14:26Z</time>
      </trkpt>
      <trkpt lat="48.8003" lon="2.1324">
        <ele>137.61</ele>
        <time>2012-01-06T16:14:40Z</time>
      </trkpt>
      <trkpt lat="48.8002" lon="2.13247">
        <ele>139.05</ele>
        <time>2012-01-06T16:14:53Z</time>
      </trkpt>
      <trkpt lat="48.80014" lon="2.13252">
        <ele>137.61</ele>
        <time>2012-01-06T16:15:08Z</time>
      </trkpt>
      <trkpt lat="48.80001" lon="2.13264">
        <ele>133.28</ele>
        <time>2012-01-06T16:15:20Z</time>
      </trkpt>
      <trkpt lat="48.79995" lon="2.13274">
        <ele>131.36</ele>
        <time>2012-01-06T16:15:31Z</time>
      </trkpt>
      <trkpt lat="48.79986" lon="2.13282">
        <ele>127.99</ele>
        <time>2012-01-06T16:15:43Z</time>
      </trkpt>
      <trkpt lat="48.79984" lon="2.13282">
        <ele>126.55</ele>
        <time>2012-01-06T16:15:47Z</time>
      </trkpt>
      <trkpt lat="48.79981" lon="2.13283">
        <ele>126.07</ele>
        <time>2012-01-06T16:16:03Z</time>
      </trkpt>
      <trkpt lat="48.7998" lon="2.13282">
        <ele>125.59</ele>
        <time>2012-01-06T16:16:26Z</time>
      </trkpt>
      <trkpt lat="48.79979" lon="2.13285">
        <ele>126.07</ele>
        <time>2012-01-06T16:16:55Z</time>
      </trkpt>
      <trkpt lat="48.79974" lon="2.13292">
        <ele>126.07</ele>
        <time>2012-01-06T16:17:19Z</time>
      </trkpt>
      <trkpt lat="48.79968" lon="2.13299">
        <ele>127.51</ele>
        <time>2012-01-06T16:17:36Z</time>
      </trkpt>
      <trkpt lat="48.79965" lon="2.13308">
        <ele>129.92</ele>
        <time>2012-01-06T16:17:43Z</time>
      </trkpt>
      <trkpt lat="48.79955" lon="2.1332">
        <ele>131.84</ele>
        <time>2012-01-06T16:17:56Z</time>
      </trkpt>
      <trkpt lat="48.7995" lon="2.13325">
        <ele>130.4</ele>
        <time>2012-01-06T16:18:11Z</time>
      </trkpt>
      <trkpt lat="48.79946" lon="2.1333">
        <ele>129.92</ele>
        <time>2012-01-06T16:18:26Z</time>
      </trkpt>
      <trkpt lat="48.79925" lon="2.13344">
        <ele>130.4</ele>
        <time>2012-01-06T16:18:42Z</time>
      </trkpt>
      <trkpt lat="48.79906" lon="2.13367">
        <ele>141.93</ele>
        <time>2012-01-06T16:18:55Z</time>
      </trkpt>
      <trkpt lat="48.79905" lon="2.13368">
        <ele>140.97</ele>
        <time>2012-01-06T16:18:57Z</time>
      </trkpt>
      <trkpt lat="48.79899" lon="2.13375">
        <ele>136.64</ele>
        <time>2012-01-06T16:19:07Z</time>
      </trkpt>
      <trkpt lat="48.79888" lon="2.13383">
        <ele>135.68</ele>
        <time>2012-01-06T16:19:20Z</time>
      </trkpt>
      <trkpt lat="48.79877" lon="2.13394">
        <ele>135.2</ele>
        <time>2012-01-06T16:19:34Z</time>
      </trkpt>
      <trkpt lat="48.7987" lon="2.1342">
        <ele>138.09</ele>
        <time>2012-01-06T16:19:49Z</time>
      </trkpt>
      <trkpt lat="48.79861" lon="2.13427">
        <ele>139.05</ele>
        <time>2012-01-06T16:20:03Z</time>
      </trkpt>
      <trkpt lat="48.79855" lon="2.13431">
        <ele>139.05</ele>
        <time>2012-01-06T16:20:20Z</time>
      </trkpt>
      <trkpt lat="48.7985" lon="2.13434">
        <ele>139.05</ele>
        <time>2012-01-06T16:20:32Z</time>
      </trkpt>
      <trkpt lat="48.79849" lon="2.13435">
        <ele>139.05</ele>
        <time>2012-01-06T16:20:42Z</time>
      </trkpt>
      <trkpt lat="48.79842" lon="2.13442">
        <ele>138.09</ele>
        <time>2012-01-06T16:20:52Z</time>
      </trkpt>
      <trkpt lat="48.79838" lon="2.13445">
        <ele>138.09</ele>
        <time>2012-01-06T16:20:56Z</time>
      </trkpt>
      <trkpt lat="48.7983" lon="2.13451">
        <ele>137.13</ele>
        <time>2012-01-06T16:21:03Z</time>
      </trkpt>
      <trkpt lat="48.79819" lon="2.13463">
        <ele>136.16</ele>
        <time>2012-01-06T16:21:17Z</time>
      </trkpt>
      <trkpt lat="48.79811" lon="2.13475">
        <ele>137.61</ele>
        <time>2012-01-06T16:21:31Z</time>
      </trkpt>
      <trkpt lat="48.79809" lon="2.13479">
        <ele>137.61</ele>
        <time>2012-01-06T16:21:44Z</time>
      </trkpt>
      <trkpt lat="48.79804" lon="2.13481">
        <ele>136.64</ele>
        <time>2012-01-06T16:22:00Z</time>
      </trkpt>
      <trkpt lat="48.79796" lon="2.13493">
        <ele>137.13</ele>
        <time>2012-01-06T16:22:17Z</time>
      </trkpt>
      <trkpt lat="48.79796" lon="2.13493">
        <ele>137.13</ele>
        <time>2012-01-06T16:22:34Z</time>
      </trkpt>
      <trkpt lat="48.79762" lon="2.13526">
        <ele>134.72</ele>
        <time>2012-01-06T16:22:48Z</time>
      </trkpt>
      <trkpt lat="48.79738" lon="2.13548">
        <ele>136.16</ele>
        <time>2012-01-06T16:23:10Z</time>
      </trkpt>
      <trkpt lat="48.79726" lon="2.13558">
        <ele>137.61</ele>
        <time>2012-01-06T16:23:15Z</time>
      </trkpt>
      <trkpt lat="48.79712" lon="2.13557">
        <ele>137.13</ele>
        <time>2012-01-06T16:23:27Z</time>
      </trkpt>
      <trkpt lat="48.7971" lon="2.13557">
        <ele>136.16</ele>
        <time>2012-01-06T16:23:29Z</time>
      </trkpt>
      <trkpt lat="48.79698" lon="2.13559">
        <ele>132.8</ele>
        <time>2012-01-06T16:23:42Z</time>
      </trkpt>
      <trkpt lat="48.79697" lon="2.1356">
        <ele>132.32</ele>
        <time>2012-01-06T16:23:44Z</time>
      </trkpt>
      <trkpt lat="48.79695" lon="2.1356">
        <ele>132.32</ele>
        <time>2012-01-06T16:23:46Z</time>
      </trkpt>
      <trkpt lat="48.79681" lon="2.13564">
        <ele>131.36</ele>
        <time>2012-01-06T16:24:00Z</time>
      </trkpt>
      <trkpt lat="48.7967" lon="2.13569">
        <ele>130.88</ele>
        <time>2012-01-06T16:24:14Z</time>
      </trkpt>
      <trkpt lat="48.79658" lon="2.13572">
        <ele>130.88</ele>
        <time>2012-01-06T16:24:28Z</time>
      </trkpt>
      <trkpt lat="48.79646" lon="2.13576">
        <ele>129.92</ele>
        <time>2012-01-06T16:24:41Z</time>
      </trkpt>
      <trkpt lat="48.79633" lon="2.13581">
        <ele>128.47</ele>
        <time>2012-01-06T16:24:55Z</time>
      </trkpt>
      <trkpt lat="48.79621" lon="2.13586">
        <ele>127.99</ele>
        <time>2012-01-06T16:25:08Z</time>
      </trkpt>
      <trkpt lat="48.79608" lon="2.13587">
        <ele>127.99</ele>
        <time>2012-01-06T16:25:21Z</time>
      </trkpt>
      <trkpt lat="48.79594" lon="2.1359">
        <ele>126.55</ele>
        <time>2012-01-06T16:25:35Z</time>
      </trkpt>
      <trkpt lat="48.79585" lon="2.13594">
        <ele>126.07</ele>
        <time>2012-01-06T16:25:47Z</time>
      </trkpt>
      <trkpt lat="48.79581" lon="2.13596">
        <ele>126.07</ele>
        <time>2012-01-06T16:26:05Z</time>
      </trkpt>
      <trkpt lat="48.79579" lon="2.13594">
        <ele>126.07</ele>
        <time>2012-01-06T16:26:29Z</time>
      </trkpt>
      <trkpt lat="48.79579" lon="2.13594">
        <ele>126.07</ele>
        <time>2012-01-06T16:27:01Z</time>
      </trkpt>
      <trkpt lat="48.79579" lon="2.13595">
        <ele>126.07</ele>
        <time>2012-01-06T16:27:31Z</time>
      </trkpt>
      <trkpt lat="48.79579" lon="2.13595">
        <ele>126.07</ele>
        <time>2012-01-06T16:28:01Z</time>
      </trkpt>
      <trkpt lat="48.79579" lon="2.13599">
        <ele>127.51</ele>
        <time>2012-01-06T16:28:29Z</time>
      </trkpt>
      <trkpt lat="48.79579" lon="2.13595">
        <ele>127.99</ele>
        <time>2012-01-06T16:28:55Z</time>
      </trkpt>
      <trkpt lat="48.79579" lon="2.13595">
        <ele>127.99</ele>
        <time>2012-01-06T16:29:21Z</time>
      </trkpt>
      <trkpt lat="48.79562" lon="2.13591">
        <ele>127.51</ele>
        <time>2012-01-06T16:29:39Z</time>
      </trkpt>
      <trkpt lat="48.79559" lon="2.13591">
        <ele>127.99</ele>
        <time>2012-01-06T16:29:58Z</time>
      </trkpt>
      <trkpt lat="48.79549" lon="2.13596">
        <ele>127.99</ele>
        <time>2012-01-06T16:30:13Z</time>
      </trkpt>
      <trkpt lat="48.79548" lon="2.13596">
        <ele>127.99</ele>
        <time>2012-01-06T16:30:14Z</time>
      </trkpt>
      <trkpt lat="48.79535" lon="2.13607">
        <ele>127.99</ele>
        <time>2012-01-06T16:30:25Z</time>
      </trkpt>
    </trkseg>
  </trk>
</gpx>